Wetterdaten: Samstag, 05.07.2014
Datum Zeit Temp. Aussen +5cm Feuchte Auss Luftdruck Regen Sonnenschein Regendauer UV Solar Windben
05.07.2014 00:00 22,4 C 20,0 C 74 % 1006,7 hPa 0,0 l/m 0 min 0 min 0,0 UV-I 0 W/m 2,1 km/h (1 Bft)
05.07.2014 00:02 22,4 C 20,0 C 74 % 1006,6 hPa 0,0 l/m 0 min 0 min 0,0 UV-I 0 W/m 0,0 km/h (0 Bft)
05.07.2014 00:05 22,3 C 19,4 C 74 % 1006,7 hPa 0,0 l/m 0 min 0 min 0,0 UV-I 0 W/m 2,1 km/h (1 Bft)
05.07.2014 00:06 22,4 C 20,0 C 74 % 1006,7 hPa 0,0 l/m 0 min 0 min 0,0 UV-I 0 W/m 2,1 km/h (1 Bft)
05.07.2014 00:08 22,4 C 20,0 C 74 % 1006,6 hPa 0,0 l/m 0 min 0 min 0,0 UV-I 0 W/m 0,0 km/h (0 Bft)
05.07.2014 00:10 22,4 C 19,4 C 74 % 1006,7 hPa 0,0 l/m 0 min 0 min 0,0 UV-I 0 W/m 0,0 km/h (0 Bft)
05.07.2014 00:12 22,4 C 19,4 C 74 % 1006,6 hPa 0,0 l/m 0 min 0 min 0,0 UV-I 0 W/m 0,0 km/h (0 Bft)
05.07.2014 00:14 22,4 C 19,4 C 74 % 1006,6 hPa 0,0 l/m 0 min 0 min 0,0 UV-I 0 W/m 0,0 km/h (0 Bft)
05.07.2014 00:16 22,4 C 19,4 C 74 % 1006,6 hPa 0,0 l/m 0 min 0 min 0,0 UV-I 0 W/m 0,0 km/h (0 Bft)
05.07.2014 00:18 22,4 C 19,4 C 74 % 1006,7 hPa 0,0 l/m 0 min 0 min 0,0 UV-I 0 W/m 2,1 km/h (1 Bft)
05.07.2014 00:20 22,4 C 19,4 C 74 % 1006,6 hPa 0,0 l/m 0 min 0 min 0,0 UV-I 0 W/m 0,0 km/h (0 Bft)
05.07.2014 00:22 22,4 C 19,4 C 74 % 1006,7 hPa 0,0 l/m 0 min 0 min 0,0 UV-I 0 W/m 6,3 km/h (2 Bft)
05.07.2014 00:24 22,4 C 19,4 C 74 % 1006,7 hPa 0,0 l/m 0 min 0 min 0,0 UV-I 0 W/m 2,1 km/h (1 Bft)
05.07.2014 00:26 22,4 C 19,4 C 74 % 1006,7 hPa 0,0 l/m 0 min 0 min 0,0 UV-I 0 W/m 8,4 km/h (2 Bft)
05.07.2014 00:28 22,4 C 19,4 C 74 % 1006,7 hPa 0,0 l/m 0 min 0 min 0,0 UV-I 0 W/m 6,3 km/h (2 Bft)
05.07.2014 00:30 22,4 C 19,4 C 74 % 1006,7 hPa 0,0 l/m 0 min 0 min 0,0 UV-I 0 W/m 2,1 km/h (1 Bft)
05.07.2014 00:32 22,3 C 19,4 C 74 % 1006,7 hPa 0,0 l/m 0 min 0 min 0,0 UV-I 0 W/m 6,3 km/h (2 Bft)
05.07.2014 00:34 22,3 C 19,4 C 74 % 1006,7 hPa 0,0 l/m 0 min 0 min 0,0 UV-I 0 W/m 0,0 km/h (0 Bft)
05.07.2014 00:36 22,3 C 19,4 C 74 % 1006,6 hPa 0,0 l/m 0 min 0 min 0,0 UV-I 0 W/m 2,1 km/h (1 Bft)
05.07.2014 00:38 22,3 C 19,4 C 74 % 1006,6 hPa 0,0 l/m 0 min 0 min 0,0 UV-I 0 W/m 0,0 km/h (0 Bft)
05.07.2014 00:40 22,3 C 19,4 C 74 % 1006,6 hPa 0,0 l/m 0 min 0 min 0,0 UV-I 0 W/m 0,0 km/h (0 Bft)
05.07.2014 00:42 22,3 C 19,4 C 74 % 1006,6 hPa 0,0 l/m 0 min 0 min 0,0 UV-I 0 W/m 2,1 km/h (1 Bft)
05.07.2014 00:44 22,3 C 19,4 C 73 % 1006,5 hPa 0,0 l/m 0 min 0 min 0,0 UV-I 0 W/m 0,0 km/h (0 Bft)
05.07.2014 00:46 22,3 C 19,4 C 73 % 1006,6 hPa 0,0 l/m 0 min 0 min 0,0 UV-I 0 W/m 2,1 km/h (1 Bft)
05.07.2014 00:48 22,3 C 19,4 C 73 % 1006,6 hPa 0,0 l/m 0 min 0 min 0,0 UV-I 0 W/m 0,0 km/h (0 Bft)
05.07.2014 00:50 22,3 C 19,4 C 73 % 1006,6 hPa 0,0 l/m 0 min 0 min 0,0 UV-I 0 W/m 2,1 km/h (1 Bft)
05.07.2014 00:52 22,3 C 19,4 C 73 % 1006,6 hPa 0,0 l/m 0 min 0 min 0,0 UV-I 0 W/m 0,0 km/h (0 Bft)
05.07.2014 00:54 22,3 C 19,4 C 73 % 1006,6 hPa 0,0 l/m 0 min 0 min 0,0 UV-I 0 W/m 0,0 km/h (0 Bft)
05.07.2014 00:56 22,3 C 19,4 C 73 % 1006,5 hPa 0,0 l/m 0 min 0 min 0,0 UV-I 0 W/m 0,0 km/h (0 Bft)
05.07.2014 00:58 22,3 C 19,4 C 73 % 1006,5 hPa 0,0 l/m 0 min 0 min 0,0 UV-I 0 W/m 0,0 km/h (0 Bft)
05.07.2014 01:00 22,3 C 19,4 C 73 % 1006,5 hPa 0,0 l/m 0 min 0 min 0,0 UV-I 0 W/m 8,4 km/h (2 Bft)
05.07.2014 01:02 22,4 C 19,4 C 72 % 1006,5 hPa 0,0 l/m 0 min 0 min 0,0 UV-I 0 W/m 6,3 km/h (2 Bft)
05.07.2014 01:04 22,4 C 19,4 C 73 % 1006,5 hPa 0,0 l/m 0 min 0 min 0,0 UV-I 0 W/m 0,0 km/h (0 Bft)
05.07.2014 01:06 22,3 C 19,4 C 73 % 1006,5 hPa 0,0 l/m 0 min 0 min 0,0 UV-I 0 W/m 6,3 km/h (2 Bft)
05.07.2014 01:08 22,3 C 19,4 C 73 % 1006,3 hPa 0,0 l/m 0 min 0 min 0,0 UV-I 0 W/m 6,3 km/h (2 Bft)
05.07.2014 01:10 22,3 C 19,4 C 73 % 1006,2 hPa 0,0 l/m 0 min 0 min 0,0 UV-I 0 W/m 6,3 km/h (2 Bft)
05.07.2014 01:12 22,3 C 19,4 C 73 % 1006,2 hPa 0,0 l/m 0 min 0 min 0,0 UV-I 0 W/m 0,0 km/h (0 Bft)
05.07.2014 01:14 22,3 C 19,4 C 73 % 1006,3 hPa 0,0 l/m 0 min 0 min 0,0 UV-I 0 W/m 8,4 km/h (2 Bft)
05.07.2014 01:16 22,2 C 19,4 C 73 % 1006,2 hPa 0,0 l/m 0 min 0 min 0,0 UV-I 0 W/m 2,1 km/h (1 Bft)
05.07.2014 01:18 22,2 C 19,4 C 73 % 1006,3 hPa 0,0 l/m 0 min 0 min 0,0 UV-I 0 W/m 6,3 km/h (2 Bft)
05.07.2014 01:20 22,2 C 19,4 C 74 % 1006,2 hPa 0,0 l/m 0 min 0 min 0,0 UV-I 0 W/m 8,4 km/h (2 Bft)
05.07.2014 01:22 22,2 C 19,4 C 74 % 1006,2 hPa 0,0 l/m 0 min 0 min 0,0 UV-I 0 W/m 2,1 km/h (1 Bft)
05.07.2014 01:24 22,2 C 19,4 C 74 % 1006,2 hPa 0,0 l/m 0 min 0 min 0,0 UV-I 0 W/m 0,0 km/h (0 Bft)
05.07.2014 01:26 22,1 C 19,4 C 74 % 1006,2 hPa 0,0 l/m 0 min 0 min 0,0 UV-I 0 W/m 2,1 km/h (1 Bft)
05.07.2014 01:28 22,1 C 19,4 C 74 % 1006,2 hPa 0,0 l/m 0 min 0 min 0,0 UV-I 0 W/m 8,4 km/h (2 Bft)
05.07.2014 01:30 22,1 C 19,4 C 74 % 1006,2 hPa 0,0 l/m 0 min 0 min 0,0 UV-I 0 W/m 8,4 km/h (2 Bft)
05.07.2014 01:32 22,1 C 19,4 C 74 % 1006,2 hPa 0,0 l/m 0 min 0 min 0,0 UV-I 0 W/m 10,5 km/h (2 Bft)
05.07.2014 01:34 22,0 C 19,4 C 74 % 1006,2 hPa 0,0 l/m 0 min 0 min 0,0 UV-I 0 W/m 12,6 km/h (3 Bft)
05.07.2014 01:36 22,0 C 19,4 C 74 % 1006,1 hPa 0,0 l/m 0 min 0 min 0,0 UV-I 0 W/m 12,6 km/h (3 Bft)
05.07.2014 01:38 22,0 C 19,4 C 73 % 1006,1 hPa 0,0 l/m 0 min 0 min 0,0 UV-I 0 W/m 6,3 km/h (2 Bft)
05.07.2014 01:40 22,1 C 19,4 C 73 % 1006,2 hPa 0,0 l/m 0 min 0 min 0,0 UV-I 0 W/m 10,5 km/h (2 Bft)
05.07.2014 01:42 22,1 C 19,4 C 73 % 1006,1 hPa 0,0 l/m 0 min 0 min 0,0 UV-I 0 W/m 10,5 km/h (2 Bft)
05.07.2014 01:44 22,1 C 19,4 C 73 % 1006,1 hPa 0,0 l/m 0 min 0 min 0,0 UV-I 0 W/m 12,6 km/h (3 Bft)
05.07.2014 01:46 22,1 C 19,4 C 73 % 1006,2 hPa 0,0 l/m 0 min 0 min 0,0 UV-I 0 W/m 6,3 km/h (2 Bft)
05.07.2014 01:48 22,0 C 19,4 C 73 % 1006,2 hPa 0,0 l/m 0 min 0 min 0,0 UV-I 0 W/m 10,5 km/h (2 Bft)
05.07.2014 01:50 22,0 C 19,4 C 73 % 1006,1 hPa 0,0 l/m 0 min 0 min 0,0 UV-I 0 W/m 4,2 km/h (1 Bft)
05.07.2014 01:52 22,0 C 19,4 C 73 % 1006,1 hPa 0,0 l/m 0 min 0 min 0,0 UV-I 0 W/m 8,4 km/h (2 Bft)
05.07.2014 01:54 21,9 C 19,4 C 73 % 1006,1 hPa 0,0 l/m 0 min 0 min 0,0 UV-I 0 W/m 8,4 km/h (2 Bft)
05.07.2014 01:56 21,9 C 19,4 C 74 % 1006,1 hPa 0,0 l/m 0 min 0 min 0,0 UV-I 0 W/m 6,3 km/h (2 Bft)
05.07.2014 01:58 21,9 C 19,4 C 73 % 1006,1 hPa 0,0 l/m 0 min 0 min 0,0 UV-I 0 W/m 12,6 km/h (3 Bft)
05.07.2014 02:00 21,8 C 19,4 C 73 % 1006,1 hPa 0,0 l/m 0 min 0 min 0,0 UV-I 0 W/m 10,5 km/h (2 Bft)
05.07.2014 02:02 21,8 C 19,4 C 73 % 1006,0 hPa 0,0 l/m 0 min 0 min 0,0 UV-I 0 W/m 8,4 km/h (2 Bft)
05.07.2014 02:04 21,8 C 19,4 C 73 % 1006,1 hPa 0,0 l/m 0 min 0 min 0,0 UV-I 0 W/m 8,4 km/h (2 Bft)
05.07.2014 02:06 21,8 C 19,4 C 73 % 1006,1 hPa 0,0 l/m 0 min 0 min 0,0 UV-I 0 W/m 10,5 km/h (2 Bft)
05.07.2014 02:08 21,7 C 18,9 C 73 % 1006,0 hPa 0,0 l/m 0 min 0 min 0,0 UV-I 0 W/m 6,3 km/h (2 Bft)
05.07.2014 02:10 21,7 C 18,9 C 74 % 1006,1 hPa 0,0 l/m 0 min 0 min 0,0 UV-I 0 W/m 8,4 km/h (2 Bft)
05.07.2014 02:12 21,7 C 18,9 C 74 % 1006,0 hPa 0,0 l/m 0 min 0 min 0,0 UV-I 0 W/m 12,6 km/h (3 Bft)
05.07.2014 02:14 21,6 C 18,9 C 74 % 1006,0 hPa 0,0 l/m 0 min 0 min 0,0 UV-I 0 W/m 10,5 km/h (2 Bft)
05.07.2014 02:16 21,6 C 19,4 C 74 % 1006,0 hPa 0,0 l/m 0 min 0 min 0,0 UV-I 0 W/m 12,6 km/h (3 Bft)
05.07.2014 02:18 21,6 C 19,4 C 74 % 1006,0 hPa 0,0 l/m 0 min 0 min 0,0 UV-I 0 W/m 10,5 km/h (2 Bft)
05.07.2014 02:20 21,5 C 19,4 C 74 % 1006,0 hPa 0,0 l/m 0 min 0 min 0,0 UV-I 0 W/m 8,4 km/h (2 Bft)
05.07.2014 02:22 21,5 C 19,4 C 74 % 1006,0 hPa 0,0 l/m 0 min 0 min 0,0 UV-I 0 W/m 12,6 km/h (3 Bft)
05.07.2014 02:24 21,5 C 18,9 C 74 % 1006,0 hPa 0,0 l/m 0 min 0 min 0,0 UV-I 0 W/m 10,5 km/h (2 Bft)
05.07.2014 02:26 21,5 C 18,9 C 74 % 1006,0 hPa 0,0 l/m 0 min 0 min 0,0 UV-I 0 W/m 6,3 km/h (2 Bft)
05.07.2014 02:28 21,5 C 18,9 C 74 % 1006,0 hPa 0,0 l/m 0 min 0 min 0,0 UV-I 0 W/m 6,3 km/h (2 Bft)
05.07.2014 02:30 21,5 C 18,9 C 74 % 1006,0 hPa 0,0 l/m 0 min 0 min 0,0 UV-I 0 W/m 0,0 km/h (0 Bft)
05.07.2014 02:32 21,4 C 18,9 C 74 % 1006,0 hPa 0,0 l/m 0 min 0 min 0,0 UV-I 0 W/m 8,4 km/h (2 Bft)
05.07.2014 02:34 21,4 C 18,9 C 74 % 1006,0 hPa 0,0 l/m 0 min 0 min 0,0 UV-I 0 W/m 10,5 km/h (2 Bft)
05.07.2014 02:36 21,3 C 18,9 C 74 % 1006,0 hPa 0,0 l/m 0 min 0 min 0,0 UV-I 0 W/m 8,4 km/h (2 Bft)
05.07.2014 02:38 21,3 C 18,9 C 74 % 1006,0 hPa 0,0 l/m 0 min 0 min 0,0 UV-I 0 W/m 12,6 km/h (3 Bft)
05.07.2014 02:40 21,2 C 18,9 C 74 % 1006,0 hPa 0,0 l/m 0 min 0 min 0,0 UV-I 0 W/m 12,6 km/h (3 Bft)
05.07.2014 02:42 21,3 C 18,9 C 74 % 1006,0 hPa 0,0 l/m 0 min 0 min 0,0 UV-I 0 W/m 8,4 km/h (2 Bft)
05.07.2014 02:44 21,2 C 18,9 C 75 % 1006,0 hPa 0,0 l/m 0 min 0 min 0,0 UV-I 0 W/m 8,4 km/h (2 Bft)
05.07.2014 02:46 21,2 C 18,9 C 74 % 1006,0 hPa 0,0 l/m 0 min 0 min 0,0 UV-I 0 W/m 10,5 km/h (2 Bft)
05.07.2014 02:48 21,2 C 18,9 C 75 % 1006,0 hPa 0,0 l/m 0 min 0 min 0,0 UV-I 0 W/m 10,5 km/h (2 Bft)
05.07.2014 02:50 21,2 C 18,9 C 74 % 1005,9 hPa 0,0 l/m 0 min 0 min 0,0 UV-I 0 W/m 10,5 km/h (2 Bft)
05.07.2014 02:52 21,3 C 18,9 C 74 % 1006,0 hPa 0,0 l/m 0 min 0 min 0,0 UV-I 0 W/m 6,3 km/h (2 Bft)
05.07.2014 02:54 21,2 C 18,9 C 74 % 1005,9 hPa 0,0 l/m 0 min 0 min 0,0 UV-I 0 W/m 8,4 km/h (2 Bft)
05.07.2014 02:56 21,2 C 18,9 C 74 % 1006,0 hPa 0,0 l/m 0 min 0 min 0,0 UV-I 0 W/m 12,6 km/h (3 Bft)
05.07.2014 02:58 21,2 C 18,9 C 75 % 1005,9 hPa 0,0 l/m 0 min 0 min 0,0 UV-I 0 W/m 8,4 km/h (2 Bft)
05.07.2014 03:00 21,2 C 18,9 C 74 % 1006,0 hPa 0,0 l/m 0 min 0 min 0,0 UV-I 0 W/m 12,6 km/h (3 Bft)
05.07.2014 03:02 21,2 C 18,9 C 75 % 1006,0 hPa 0,0 l/m 0 min 0 min 0,0 UV-I 0 W/m 14,6 km/h (3 Bft)
05.07.2014 03:04 21,2 C 18,9 C 75 % 1006,0 hPa 0,0 l/m 0 min 0 min 0,0 UV-I 0 W/m 10,5 km/h (2 Bft)
05.07.2014 03:06 21,2 C 18,9 C 75 % 1005,9 hPa 0,0 l/m 0 min 0 min 0,0 UV-I 0 W/m 10,5 km/h (2 Bft)
05.07.2014 03:08 21,2 C 18,9 C 75 % 1005,9 hPa 0,0 l/m 0 min 0 min 0,0 UV-I 0 W/m 14,6 km/h (3 Bft)
05.07.2014 03:10 21,1 C 18,9 C 75 % 1005,9 hPa 0,0 l/m 0 min 0 min 0,0 UV-I 0 W/m 10,5 km/h (2 Bft)
05.07.2014 03:12 21,2 C 18,9 C 75 % 1005,9 hPa 0,0 l/m 0 min 0 min 0,0 UV-I 0 W/m 10,5 km/h (2 Bft)
05.07.2014 03:14 21,2 C 18,9 C 75 % 1005,9 hPa 0,0 l/m 0 min 0 min 0,0 UV-I 0 W/m 10,5 km/h (2 Bft)
05.07.2014 03:16 21,2 C 18,9 C 75 % 1005,9 hPa 0,0 l/m 0 min 0 min 0,0 UV-I 0 W/m 12,6 km/h (3 Bft)
05.07.2014 03:18 21,1 C 18,9 C 75 % 1005,9 hPa 0,0 l/m 0 min 0 min 0,0 UV-I 0 W/m 2,1 km/h (1 Bft)
05.07.2014 03:20 21,2 C 18,9 C 74 % 1005,9 hPa 0,0 l/m 0 min 0 min 0,0 UV-I 0 W/m 8,4 km/h (2 Bft)
05.07.2014 03:22 21,2 C 18,9 C 75 % 1005,8 hPa 0,0 l/m 0 min 0 min 0,0 UV-I 0 W/m 6,3 km/h (2 Bft)
05.07.2014 03:24 21,2 C 18,9 C 75 % 1005,9 hPa 0,0 l/m 0 min 2 min 0,0 UV-I 0 W/m 2,1 km/h (1 Bft)
05.07.2014 03:26 21,2 C 18,9 C 74 % 1005,9 hPa 0,0 l/m 0 min 0 min 0,0 UV-I 0 W/m 8,4 km/h (2 Bft)
05.07.2014 03:28 21,2 C 18,9 C 75 % 1005,9 hPa 0,0 l/m 0 min 0 min 0,0 UV-I 0 W/m 8,4 km/h (2 Bft)
05.07.2014 03:30 21,2 C 18,9 C 75 % 1005,8 hPa 0,0 l/m 0 min 0 min 0,0 UV-I 0 W/m 8,4 km/h (2 Bft)
05.07.2014 03:32 21,1 C 18,9 C 75 % 1005,8 hPa 0,0 l/m 0 min 2 min 0,0 UV-I 0 W/m 10,5 km/h (2 Bft)
05.07.2014 03:34 21,1 C 18,9 C 75 % 1005,7 hPa 0,0 l/m 0 min 0 min 0,0 UV-I 0 W/m 10,5 km/h (2 Bft)
05.07.2014 03:36 21,1 C 18,9 C 75 % 1005,7 hPa 0,0 l/m 0 min 0 min 0,0 UV-I 0 W/m 6,3 km/h (2 Bft)
05.07.2014 03:38 21,2 C 18,9 C 75 % 1005,8 hPa 0,0 l/m 0 min 0 min 0,0 UV-I 0 W/m 8,4 km/h (2 Bft)
05.07.2014 03:40 21,2 C 18,9 C 75 % 1005,7 hPa 0,0 l/m 0 min 0 min 0,0 UV-I 0 W/m 8,4 km/h (2 Bft)
05.07.2014 03:42 21,2 C 18,3 C 75 % 1005,8 hPa 0,0 l/m 0 min 0 min 0,0 UV-I 0 W/m 8,4 km/h (2 Bft)
05.07.2014 03:44 21,1 C 18,9 C 75 % 1005,8 hPa 0,0 l/m 0 min 2 min 0,0 UV-I 0 W/m 8,4 km/h (2 Bft)
05.07.2014 03:46 21,1 C 18,9 C 76 % 1005,8 hPa 0,0 l/m 0 min 2 min 0,0 UV-I 0 W/m 4,2 km/h (1 Bft)
05.07.2014 03:48 21,1 C 18,9 C 76 % 1005,7 hPa 0,0 l/m 0 min 0 min 0,0 UV-I 0 W/m 10,5 km/h (2 Bft)
05.07.2014 03:50 21,1 C 18,9 C 76 % 1005,7 hPa 0,0 l/m 0 min 0 min 0,0 UV-I 0 W/m 14,6 km/h (3 Bft)
05.07.2014 03:52 21,1 C 18,9 C 76 % 1005,7 hPa 0,0 l/m 0 min 0 min 0,0 UV-I 0 W/m 8,4 km/h (2 Bft)
05.07.2014 03:54 21,0 C 18,9 C 76 % 1005,7 hPa 0,0 l/m 0 min 0 min 0,0 UV-I 0 W/m 18,8 km/h (3 Bft)
05.07.2014 03:56 21,1 C 18,9 C 76 % 1005,7 hPa 0,0 l/m 0 min 0 min 0,0 UV-I 0 W/m 10,5 km/h (2 Bft)
05.07.2014 03:58 21,1 C 18,9 C 76 % 1005,7 hPa 0,0 l/m 0 min 0 min 0,0 UV-I 0 W/m 10,5 km/h (2 Bft)
05.07.2014 04:00 21,1 C 18,9 C 76 % 1005,7 hPa 0,0 l/m 0 min 0 min 0,0 UV-I 0 W/m 8,4 km/h (2 Bft)
05.07.2014 04:05 21,1 C 18,9 C 76 % 1005,6 hPa 0,0 l/m 0 min 0 min 0,0 UV-I 0 W/m 10,5 km/h (2 Bft)
05.07.2014 04:06 21,0 C 18,9 C 76 % 1005,6 hPa 0,0 l/m 0 min 0 min 0,0 UV-I 0 W/m 0,0 km/h (0 Bft)
05.07.2014 04:11 21,0 C 18,9 C 76 % 1005,6 hPa 0,0 l/m 0 min 0 min 0,0 UV-I 0 W/m 8,4 km/h (2 Bft)
05.07.2014 04:12 21,0 C 18,9 C 76 % 1005,6 hPa 0,0 l/m 0 min 0 min 0,0 UV-I 0 W/m 8,4 km/h (2 Bft)
05.07.2014 04:14 21,0 C 18,9 C 76 % 1005,6 hPa 0,0 l/m 0 min 0 min 0,0 UV-I 0 W/m 12,6 km/h (3 Bft)
05.07.2014 04:16 21,0 C 18,9 C 76 % 1005,6 hPa 0,0 l/m 0 min 0 min 0,0 UV-I 0 W/m 10,5 km/h (2 Bft)
05.07.2014 04:18 21,0 C 18,9 C 76 % 1005,6 hPa 0,0 l/m 0 min 0 min 0,0 UV-I 0 W/m 10,5 km/h (2 Bft)
05.07.2014 04:20 21,0 C 18,9 C 76 % 1005,6 hPa 0,0 l/m 0 min 0 min 0,0 UV-I 0 W/m 16,7 km/h (3 Bft)
05.07.2014 04:22 21,0 C 18,9 C 76 % 1005,5 hPa 0,0 l/m 0 min 0 min 0,0 UV-I 0 W/m 18,8 km/h (3 Bft)
05.07.2014 04:24 21,1 C 18,9 C 76 % 1005,6 hPa 0,0 l/m 0 min 0 min 0,0 UV-I 0 W/m 8,4 km/h (2 Bft)
05.07.2014 04:26 21,1 C 18,9 C 76 % 1005,5 hPa 0,0 l/m 0 min 0 min 0,0 UV-I 0 W/m 10,5 km/h (2 Bft)
05.07.2014 04:28 21,1 C 18,9 C 76 % 1005,5 hPa 0,0 l/m 0 min 0 min 0,0 UV-I 0 W/m 12,6 km/h (3 Bft)
05.07.2014 04:30 21,0 C 18,9 C 76 % 1005,5 hPa 0,0 l/m 0 min 0 min 0,0 UV-I 0 W/m 10,5 km/h (2 Bft)
05.07.2014 04:32 21,0 C 18,9 C 76 % 1005,4 hPa 0,0 l/m 0 min 0 min 0,0 UV-I 0 W/m 8,4 km/h (2 Bft)
05.07.2014 04:34 21,0 C 18,9 C 77 % 1005,4 hPa 0,0 l/m 0 min 0 min 0,0 UV-I 0 W/m 10,5 km/h (2 Bft)
05.07.2014 04:36 20,9 C 18,9 C 77 % 1005,4 hPa 0,0 l/m 0 min 0 min 0,0 UV-I 0 W/m 8,4 km/h (2 Bft)
05.07.2014 04:38 20,9 C 18,9 C 77 % 1005,4 hPa 0,0 l/m 0 min 0 min 0,0 UV-I 0 W/m 8,4 km/h (2 Bft)
05.07.2014 04:40 20,9 C 18,9 C 77 % 1005,4 hPa 0,0 l/m 0 min 0 min 0,0 UV-I 0 W/m 10,5 km/h (2 Bft)
05.07.2014 04:42 20,9 C 18,9 C 77 % 1005,4 hPa 0,0 l/m 0 min 0 min 0,0 UV-I 0 W/m 12,6 km/h (3 Bft)
05.07.2014 04:44 20,8 C 18,9 C 78 % 1005,4 hPa 0,0 l/m 0 min 0 min 0,0 UV-I 0 W/m 10,5 km/h (2 Bft)
05.07.2014 04:46 20,8 C 18,9 C 78 % 1005,4 hPa 0,0 l/m 0 min 0 min 0,0 UV-I 0 W/m 12,6 km/h (3 Bft)
05.07.2014 04:48 20,7 C 18,9 C 78 % 1005,4 hPa 0,0 l/m 0 min 0 min 0,0 UV-I 0 W/m 14,6 km/h (3 Bft)
05.07.2014 04:50 20,7 C 18,9 C 79 % 1005,5 hPa 0,0 l/m 0 min 0 min 0,0 UV-I 0 W/m 12,6 km/h (3 Bft)
05.07.2014 04:52 20,6 C 18,9 C 79 % 1005,5 hPa 0,0 l/m 0 min 0 min 0,0 UV-I 0 W/m 12,6 km/h (3 Bft)
05.07.2014 04:54 20,6 C 18,9 C 79 % 1005,5 hPa 0,0 l/m 0 min 0 min 0,0 UV-I 0 W/m 12,6 km/h (3 Bft)
05.07.2014 04:56 20,6 C 18,9 C 79 % 1005,5 hPa 0,0 l/m 0 min 0 min 0,0 UV-I 0 W/m 10,5 km/h (2 Bft)
05.07.2014 04:58 20,6 C 18,9 C 79 % 1005,4 hPa 0,0 l/m 0 min 0 min 0,0 UV-I 0 W/m 10,5 km/h (2 Bft)
05.07.2014 05:00 20,6 C 18,9 C 79 % 1005,4 hPa 0,0 l/m 0 min 0 min 0,0 UV-I 0 W/m 12,6 km/h (3 Bft)
05.07.2014 05:02 20,5 C 18,9 C 80 % 1005,4 hPa 0,0 l/m 0 min 0 min 0,0 UV-I 0 W/m 12,6 km/h (3 Bft)
05.07.2014 05:04 20,5 C 18,9 C 80 % 1005,5 hPa 0,0 l/m 0 min 0 min 0,0 UV-I 0 W/m 14,6 km/h (3 Bft)
05.07.2014 05:06 20,4 C 18,3 C 80 % 1005,4 hPa 0,0 l/m 0 min 0 min 0,0 UV-I 0 W/m 12,6 km/h (3 Bft)
05.07.2014 05:08 20,4 C 18,3 C 80 % 1005,4 hPa 0,0 l/m 0 min 0 min 0,0 UV-I 0 W/m 10,5 km/h (2 Bft)
05.07.2014 05:10 20,4 C 18,3 C 80 % 1005,5 hPa 0,0 l/m 0 min 0 min 0,0 UV-I 0 W/m 10,5 km/h (2 Bft)
05.07.2014 05:12 20,4 C 18,3 C 80 % 1005,4 hPa 0,0 l/m 0 min 0 min 0,0 UV-I 0 W/m 8,4 km/h (2 Bft)
05.07.2014 05:14 20,4 C 18,3 C 80 % 1005,4 hPa 0,0 l/m 0 min 0 min 0,0 UV-I 0 W/m 8,4 km/h (2 Bft)
05.07.2014 05:16 20,3 C 18,3 C 81 % 1005,5 hPa 0,0 l/m 0 min 0 min 0,0 UV-I 0 W/m 10,5 km/h (2 Bft)
05.07.2014 05:18 20,3 C 18,3 C 81 % 1005,4 hPa 0,0 l/m 0 min 0 min 0,0 UV-I 0 W/m 12,6 km/h (3 Bft)
05.07.2014 05:20 20,2 C 18,3 C 81 % 1005,4 hPa 0,0 l/m 0 min 0 min 0,0 UV-I 0 W/m 10,5 km/h (2 Bft)
05.07.2014 05:22 20,2 C 18,3 C 81 % 1005,4 hPa 0,0 l/m 0 min 0 min 0,0 UV-I 0 W/m 10,5 km/h (2 Bft)
05.07.2014 05:24 20,2 C 18,3 C 81 % 1005,3 hPa 0,0 l/m 0 min 0 min 0,0 UV-I 0 W/m 12,6 km/h (3 Bft)
05.07.2014 05:26 20,1 C 18,3 C 81 % 1005,4 hPa 0,0 l/m 0 min 0 min 0,0 UV-I 0 W/m 14,6 km/h (3 Bft)
05.07.2014 05:28 20,1 C 18,3 C 81 % 1005,4 hPa 0,0 l/m 0 min 0 min 0,0 UV-I 5 W/m 8,4 km/h (2 Bft)
05.07.2014 05:30 20,1 C 18,3 C 82 % 1005,4 hPa 0,0 l/m 0 min 0 min 0,0 UV-I 5 W/m 2,1 km/h (1 Bft)
05.07.2014 05:32 20,1 C 18,3 C 82 % 1005,4 hPa 0,0 l/m 0 min 0 min 0,0 UV-I 5 W/m 8,4 km/h (2 Bft)
05.07.2014 05:34 20,1 C 18,3 C 82 % 1005,3 hPa 0,0 l/m 0 min 0 min 0,0 UV-I 5 W/m 2,1 km/h (1 Bft)
05.07.2014 05:36 20,1 C 18,3 C 82 % 1005,3 hPa 0,0 l/m 0 min 0 min 0,0 UV-I 5 W/m 2,1 km/h (1 Bft)
05.07.2014 05:38 20,1 C 18,3 C 82 % 1005,3 hPa 0,0 l/m 0 min 0 min 0,0 UV-I 5 W/m 0,0 km/h (0 Bft)
05.07.2014 05:40 20,1 C 18,3 C 82 % 1005,2 hPa 0,0 l/m 0 min 0 min 0,0 UV-I 7 W/m 2,1 km/h (1 Bft)
05.07.2014 05:42 20,1 C 18,3 C 82 % 1005,2 hPa 0,0 l/m 0 min 0 min 0,0 UV-I 9 W/m 0,0 km/h (0 Bft)
05.07.2014 05:44 20,1 C 18,3 C 82 % 1005,2 hPa 0,0 l/m 0 min 0 min 0,0 UV-I 11 W/m 2,1 km/h (1 Bft)
05.07.2014 05:46 20,1 C 18,3 C 82 % 1005,2 hPa 0,0 l/m 0 min 0 min 0,0 UV-I 11 W/m 0,0 km/h (0 Bft)
05.07.2014 05:48 20,0 C 18,3 C 82 % 1005,2 hPa 0,0 l/m 0 min 0 min 0,0 UV-I 12 W/m 8,4 km/h (2 Bft)
05.07.2014 05:50 19,9 C 18,3 C 82 % 1005,2 hPa 0,0 l/m 0 min 0 min 0,0 UV-I 12 W/m 8,4 km/h (2 Bft)
05.07.2014 05:52 19,9 C 17,8 C 82 % 1005,2 hPa 0,0 l/m 0 min 0 min 0,0 UV-I 14 W/m 0,0 km/h (0 Bft)
05.07.2014 05:54 19,9 C 17,8 C 82 % 1005,2 hPa 0,0 l/m 0 min 0 min 0,0 UV-I 16 W/m 2,1 km/h (1 Bft)
05.07.2014 05:56 19,9 C 17,8 C 82 % 1005,1 hPa 0,0 l/m 0 min 0 min 0,0 UV-I 16 W/m 0,0 km/h (0 Bft)
05.07.2014 05:58 19,9 C 17,8 C 82 % 1005,2 hPa 0,0 l/m 0 min 0 min 0,0 UV-I 16 W/m 0,0 km/h (0 Bft)
05.07.2014 06:00 19,9 C 17,8 C 82 % 1005,2 hPa 0,0 l/m 0 min 0 min 0,0 UV-I 16 W/m 2,1 km/h (1 Bft)
05.07.2014 06:02 19,9 C 17,8 C 82 % 1005,1 hPa 0,0 l/m 0 min 0 min 0,0 UV-I 18 W/m 0,0 km/h (0 Bft)
05.07.2014 06:06 19,9 C 18,3 C 82 % 1005,2 hPa 0,0 l/m 0 min 0 min 0,0 UV-I 18 W/m 2,1 km/h (1 Bft)
05.07.2014 06:08 19,9 C 18,3 C 82 % 1005,2 hPa 0,0 l/m 0 min 0 min 0,0 UV-I 19 W/m 0,0 km/h (0 Bft)
05.07.2014 06:10 19,9 C 18,3 C 82 % 1005,2 hPa 0,0 l/m 0 min 0 min 0,0 UV-I 21 W/m 0,0 km/h (0 Bft)
05.07.2014 06:12 19,9 C 18,3 C 82 % 1005,2 hPa 0,0 l/m 0 min 0 min 0,0 UV-I 23 W/m 2,1 km/h (1 Bft)
05.07.2014 06:14 19,9 C 18,3 C 82 % 1005,2 hPa 0,0 l/m 0 min 0 min 0,0 UV-I 25 W/m 6,3 km/h (2 Bft)
05.07.2014 06:16 19,9 C 18,3 C 83 % 1005,2 hPa 0,0 l/m 0 min 0 min 0,0 UV-I 25 W/m 6,3 km/h (2 Bft)
05.07.2014 06:18 19,9 C 18,3 C 83 % 1005,2 hPa 0,0 l/m 0 min 0 min 0,0 UV-I 25 W/m 8,4 km/h (2 Bft)
05.07.2014 06:20 19,9 C 18,3 C 83 % 1005,3 hPa 0,0 l/m 0 min 0 min 0,0 UV-I 26 W/m 2,1 km/h (1 Bft)
05.07.2014 06:22 19,9 C 18,3 C 83 % 1005,3 hPa 0,0 l/m 0 min 0 min 0,0 UV-I 30 W/m 10,5 km/h (2 Bft)
05.07.2014 06:24 19,8 C 18,3 C 83 % 1005,3 hPa 0,0 l/m 0 min 0 min 0,0 UV-I 32 W/m 14,6 km/h (3 Bft)
05.07.2014 06:26 19,8 C 18,3 C 83 % 1005,3 hPa 0,0 l/m 0 min 0 min 0,0 UV-I 30 W/m 12,6 km/h (3 Bft)
05.07.2014 06:28 19,8 C 18,3 C 83 % 1005,3 hPa 0,0 l/m 0 min 0 min 0,0 UV-I 30 W/m 10,5 km/h (2 Bft)
05.07.2014 06:30 19,9 C 18,3 C 83 % 1005,3 hPa 0,0 l/m 0 min 0 min 0,0 UV-I 33 W/m 10,5 km/h (2 Bft)
05.07.2014 06:32 19,9 C 18,3 C 83 % 1005,3 hPa 0,0 l/m 0 min 0 min 0,0 UV-I 46 W/m 16,7 km/h (3 Bft)
05.07.2014 06:34 20,0 C 18,3 C 83 % 1005,2 hPa 0,0 l/m 0 min 0 min 0,0 UV-I 33 W/m 12,6 km/h (3 Bft)
05.07.2014 06:36 20,1 C 18,3 C 82 % 1005,2 hPa 0,0 l/m 0 min 0 min 0,0 UV-I 33 W/m 10,5 km/h (2 Bft)
05.07.2014 06:38 20,1 C 18,3 C 82 % 1005,2 hPa 0,0 l/m 0 min 0 min 0,0 UV-I 35 W/m 10,5 km/h (2 Bft)
05.07.2014 06:40 20,2 C 18,9 C 82 % 1005,3 hPa 0,0 l/m 0 min 0 min 0,0 UV-I 37 W/m 12,6 km/h (3 Bft)
05.07.2014 06:42 20,3 C 18,9 C 81 % 1005,2 hPa 0,0 l/m 0 min 0 min 0,0 UV-I 39 W/m 14,6 km/h (3 Bft)
05.07.2014 06:44 20,3 C 18,9 C 81 % 1005,2 hPa 0,0 l/m 0 min 0 min 0,0 UV-I 40 W/m 14,6 km/h (3 Bft)
05.07.2014 06:46 20,3 C 18,9 C 81 % 1005,2 hPa 0,0 l/m 0 min 0 min 0,0 UV-I 42 W/m 14,6 km/h (3 Bft)
05.07.2014 06:48 20,4 C 18,9 C 81 % 1005,2 hPa 0,0 l/m 0 min 0 min 0,0 UV-I 44 W/m 16,7 km/h (3 Bft)
05.07.2014 06:50 20,4 C 18,9 C 81 % 1005,2 hPa 0,0 l/m 0 min 0 min 0,0 UV-I 46 W/m 16,7 km/h (3 Bft)
05.07.2014 06:52 20,4 C 18,9 C 81 % 1005,2 hPa 0,0 l/m 0 min 0 min 0,0 UV-I 47 W/m 18,8 km/h (3 Bft)
05.07.2014 06:54 20,4 C 18,9 C 81 % 1005,2 hPa 0,0 l/m 0 min 0 min 0,0 UV-I 47 W/m 16,7 km/h (3 Bft)
05.07.2014 06:56 20,4 C 18,9 C 81 % 1005,1 hPa 0,0 l/m 0 min 0 min 0,0 UV-I 49 W/m 12,6 km/h (3 Bft)
05.07.2014 06:58 20,4 C 18,9 C 81 % 1005,1 hPa 0,0 l/m 0 min 0 min 0,0 UV-I 51 W/m 14,6 km/h (3 Bft)
05.07.2014 07:00 20,4 C 18,9 C 81 % 1005,1 hPa 0,0 l/m 0 min 0 min 0,0 UV-I 53 W/m 8,4 km/h (2 Bft)
05.07.2014 07:02 20,4 C 18,9 C 81 % 1005,1 hPa 0,0 l/m 0 min 0 min 0,0 UV-I 56 W/m 14,6 km/h (3 Bft)
05.07.2014 07:04 20,4 C 18,9 C 81 % 1005,1 hPa 0,0 l/m 0 min 0 min 0,0 UV-I 60 W/m 14,6 km/h (3 Bft)
05.07.2014 07:06 20,4 C 18,9 C 81 % 1005,1 hPa 0,0 l/m 0 min 0 min 0,0 UV-I 63 W/m 14,6 km/h (3 Bft)
05.07.2014 07:08 20,4 C 18,9 C 81 % 1005,1 hPa 0,0 l/m 0 min 0 min 0,0 UV-I 67 W/m 16,7 km/h (3 Bft)
05.07.2014 07:10 20,4 C 18,9 C 81 % 1005,1 hPa 0,0 l/m 0 min 0 min 0,0 UV-I 70 W/m 12,6 km/h (3 Bft)
05.07.2014 07:12 20,4 C 18,9 C 81 % 1005,1 hPa 0,0 l/m 0 min 0 min 0,0 UV-I 76 W/m 12,6 km/h (3 Bft)
05.07.2014 07:14 20,4 C 19,4 C 81 % 1005,1 hPa 0,0 l/m 0 min 0 min 0,0 UV-I 86 W/m 10,5 km/h (2 Bft)
05.07.2014 07:16 20,4 C 19,4 C 81 % 1005,1 hPa 0,0 l/m 0 min 0 min 0,0 UV-I 95 W/m 16,7 km/h (3 Bft)
05.07.2014 07:18 20,4 C 19,4 C 82 % 1005,1 hPa 0,0 l/m 0 min 0 min 0,0 UV-I 104 W/m 10,5 km/h (2 Bft)
05.07.2014 07:20 20,4 C 19,4 C 82 % 1005,1 hPa 0,0 l/m 0 min 0 min 0,0 UV-I 111 W/m 14,6 km/h (3 Bft)
05.07.2014 07:22 20,4 C 19,4 C 82 % 1005,1 hPa 0,0 l/m 0 min 0 min 0,0 UV-I 111 W/m 14,6 km/h (3 Bft)
05.07.2014 07:24 20,4 C 19,4 C 82 % 1005,0 hPa 0,0 l/m 0 min 0 min 0,0 UV-I 104 W/m 16,7 km/h (3 Bft)
05.07.2014 07:26 20,4 C 19,4 C 82 % 1005,0 hPa 0,0 l/m 0 min 0 min 0,0 UV-I 90 W/m 10,5 km/h (2 Bft)
05.07.2014 07:28 20,4 C 19,4 C 82 % 1005,0 hPa 0,0 l/m 0 min 0 min 0,0 UV-I 81 W/m 8,4 km/h (2 Bft)
05.07.2014 07:30 20,4 C 19,4 C 82 % 1005,0 hPa 0,0 l/m 0 min 0 min 0,0 UV-I 74 W/m 12,6 km/h (3 Bft)
05.07.2014 07:32 20,4 C 19,4 C 82 % 1005,0 hPa 0,0 l/m 0 min 0 min 0,0 UV-I 70 W/m 14,6 km/h (3 Bft)
05.07.2014 07:34 20,4 C 19,4 C 82 % 1005,0 hPa 0,0 l/m 0 min 0 min 0,0 UV-I 70 W/m 14,6 km/h (3 Bft)
05.07.2014 07:36 20,4 C 19,4 C 82 % 1005,0 hPa 0,0 l/m 0 min 0 min 0,0 UV-I 72 W/m 16,7 km/h (3 Bft)
05.07.2014 07:38 20,4 C 19,4 C 82 % 1005,0 hPa 0,0 l/m 0 min 0 min 0,0 UV-I 67 W/m 12,6 km/h (3 Bft)
05.07.2014 07:40 20,4 C 19,4 C 82 % 1005,0 hPa 0,0 l/m 0 min 0 min 0,0 UV-I 69 W/m 8,4 km/h (2 Bft)
05.07.2014 07:42 20,4 C 19,4 C 83 % 1005,0 hPa 0,0 l/m 0 min 0 min 0,0 UV-I 76 W/m 8,4 km/h (2 Bft)
05.07.2014 07:44 20,4 C 19,4 C 82 % 1005,0 hPa 0,0 l/m 0 min 0 min 0,0 UV-I 81 W/m 8,4 km/h (2 Bft)
05.07.2014 07:46 20,4 C 19,4 C 83 % 1005,0 hPa 0,0 l/m 0 min 0 min 0,0 UV-I 84 W/m 10,5 km/h (2 Bft)
05.07.2014 07:48 20,4 C 19,4 C 83 % 1005,0 hPa 0,0 l/m 0 min 0 min 0,0 UV-I 86 W/m 12,6 km/h (3 Bft)
05.07.2014 07:50 20,4 C 19,4 C 83 % 1005,0 hPa 0,0 l/m 0 min 0 min 0,0 UV-I 90 W/m 12,6 km/h (3 Bft)
05.07.2014 07:52 20,4 C 19,4 C 83 % 1004,9 hPa 0,0 l/m 0 min 0 min 0,0 UV-I 95 W/m 6,3 km/h (2 Bft)
05.07.2014 07:54 20,4 C 19,4 C 82 % 1005,0 hPa 0,0 l/m 0 min 0 min 0,0 UV-I 104 W/m 8,4 km/h (2 Bft)
05.07.2014 07:56 20,5 C 19,4 C 82 % 1005,0 hPa 0,0 l/m 0 min 0 min 0,0 UV-I 107 W/m 4,2 km/h (1 Bft)
05.07.2014 07:58 20,6 C 19,4 C 82 % 1005,0 hPa 0,0 l/m 0 min 0 min 0,0 UV-I 113 W/m 10,5 km/h (2 Bft)
05.07.2014 08:00 20,6 C 19,4 C 82 % 1005,0 hPa 0,0 l/m 0 min 0 min 0,0 UV-I 114 W/m 14,6 km/h (3 Bft)
05.07.2014 08:02 20,6 C 19,4 C 81 % 1005,0 hPa 0,0 l/m 0 min 0 min 0,0 UV-I 116 W/m 14,6 km/h (3 Bft)
05.07.2014 08:04 20,7 C 19,4 C 81 % 1005,0 hPa 0,0 l/m 0 min 0 min 0,0 UV-I 123 W/m 25,1 km/h (4 Bft)
05.07.2014 08:06 20,8 C 19,4 C 81 % 1005,0 hPa 0,0 l/m 0 min 0 min 0,0 UV-I 134 W/m 8,4 km/h (2 Bft)
05.07.2014 08:08 20,8 C 19,4 C 81 % 1005,0 hPa 0,0 l/m 0 min 0 min 0,0 UV-I 123 W/m 12,6 km/h (3 Bft)
05.07.2014 08:10 20,8 C 19,4 C 81 % 1005,0 hPa 0,0 l/m 0 min 0 min 0,0 UV-I 114 W/m 14,6 km/h (3 Bft)
05.07.2014 08:12 20,9 C 19,4 C 80 % 1005,0 hPa 0,0 l/m 0 min 0 min 0,0 UV-I 109 W/m 14,6 km/h (3 Bft)
05.07.2014 08:14 20,9 C 19,4 C 80 % 1005,0 hPa 0,0 l/m 0 min 0 min 0,0 UV-I 114 W/m 14,6 km/h (3 Bft)
05.07.2014 08:16 20,9 C 19,4 C 81 % 1005,0 hPa 0,0 l/m 0 min 0 min 0,0 UV-I 123 W/m 16,7 km/h (3 Bft)
05.07.2014 08:18 20,9 C 19,4 C 80 % 1005,0 hPa 0,0 l/m 0 min 0 min 0,0 UV-I 134 W/m 16,7 km/h (3 Bft)
05.07.2014 08:20 20,9 C 19,4 C 81 % 1005,0 hPa 0,0 l/m 0 min 0 min 0,0 UV-I 137 W/m 18,8 km/h (3 Bft)
05.07.2014 08:22 20,9 C 19,4 C 80 % 1005,0 hPa 0,0 l/m 0 min 0 min 0,0 UV-I 130 W/m 14,6 km/h (3 Bft)
05.07.2014 08:24 20,9 C 19,4 C 81 % 1005,0 hPa 0,0 l/m 0 min 0 min 0,0 UV-I 128 W/m 14,6 km/h (3 Bft)
05.07.2014 08:26 20,9 C 19,4 C 81 % 1005,0 hPa 0,0 l/m 0 min 0 min 0,0 UV-I 130 W/m 14,6 km/h (3 Bft)
05.07.2014 08:28 20,9 C 20,0 C 81 % 1005,0 hPa 0,0 l/m 0 min 0 min 0,0 UV-I 127 W/m 23,0 km/h (4 Bft)
05.07.2014 08:30 20,9 C 20,0 C 80 % 1005,0 hPa 0,0 l/m 0 min 0 min 0,0 UV-I 128 W/m 27,2 km/h (4 Bft)
05.07.2014 08:32 20,9 C 20,0 C 80 % 1005,0 hPa 0,0 l/m 0 min 0 min 0,0 UV-I 144 W/m 23,0 km/h (4 Bft)
05.07.2014 08:34 20,9 C 19,4 C 80 % 1005,0 hPa 0,0 l/m 0 min 0 min 0,0 UV-I 128 W/m 27,2 km/h (4 Bft)
05.07.2014 08:36 20,9 C 20,0 C 80 % 1005,0 hPa 0,0 l/m 0 min 0 min 0,0 UV-I 130 W/m 18,8 km/h (3 Bft)
05.07.2014 08:38 20,9 C 20,0 C 80 % 1005,0 hPa 0,0 l/m 0 min 0 min 0,0 UV-I 123 W/m 12,6 km/h (3 Bft)
05.07.2014 08:40 21,0 C 20,0 C 81 % 1005,0 hPa 0,0 l/m 0 min 0 min 0,0 UV-I 132 W/m 10,5 km/h (2 Bft)
05.07.2014 08:42 21,0 C 20,0 C 81 % 1005,0 hPa 0,0 l/m 0 min 0 min 0,0 UV-I 160 W/m 14,6 km/h (3 Bft)
05.07.2014 08:44 21,0 C 20,0 C 81 % 1005,0 hPa 0,0 l/m 0 min 0 min 0,0 UV-I 193 W/m 16,7 km/h (3 Bft)
05.07.2014 08:46 21,1 C 20,0 C 80 % 1005,1 hPa 0,0 l/m 2 min 0 min 0,0 UV-I 274 W/m 25,1 km/h (4 Bft)
05.07.2014 08:48 21,2 C 20,6 C 80 % 1005,1 hPa 0,0 l/m 2 min 0 min 0,0 UV-I 258 W/m 14,6 km/h (3 Bft)
05.07.2014 08:50 21,3 C 20,6 C 81 % 1005,1 hPa 0,0 l/m 2 min 0 min 0,0 UV-I 279 W/m 14,6 km/h (3 Bft)
05.07.2014 08:52 21,4 C 21,1 C 80 % 1005,1 hPa 0,0 l/m 0 min 0 min 0,0 UV-I 229 W/m 14,6 km/h (3 Bft)
05.07.2014 08:54 21,4 C 20,6 C 79 % 1005,1 hPa 0,0 l/m 2 min 0 min 0,0 UV-I 241 W/m 25,1 km/h (4 Bft)
05.07.2014 08:56 21,4 C 20,6 C 79 % 1005,1 hPa 0,0 l/m 0 min 0 min 0,0 UV-I 236 W/m 27,2 km/h (4 Bft)
05.07.2014 08:58 21,4 C 21,1 C 79 % 1005,1 hPa 0,0 l/m 0 min 0 min 0,0 UV-I 230 W/m 16,7 km/h (3 Bft)
05.07.2014 09:00 21,5 C 20,6 C 79 % 1005,1 hPa 0,0 l/m 0 min 0 min 0,0 UV-I 221 W/m 14,6 km/h (3 Bft)
05.07.2014 09:02 21,5 C 20,6 C 79 % 1005,1 hPa 0,0 l/m 0 min 0 min 0,0 UV-I 204 W/m 23,0 km/h (4 Bft)
05.07.2014 09:04 21,5 C 20,6 C 79 % 1005,1 hPa 0,0 l/m 0 min 0 min 0,0 UV-I 209 W/m 20,9 km/h (4 Bft)
05.07.2014 09:06 21,5 C 20,6 C 79 % 1005,1 hPa 0,0 l/m 0 min 0 min 0,0 UV-I 218 W/m 27,2 km/h (4 Bft)
05.07.2014 09:08 21,5 C 20,6 C 80 % 1005,1 hPa 0,0 l/m 0 min 0 min 0,0 UV-I 223 W/m 18,8 km/h (3 Bft)
05.07.2014 09:10 21,6 C 21,1 C 79 % 1005,1 hPa 0,0 l/m 0 min 0 min 0,0 UV-I 216 W/m 14,6 km/h (3 Bft)
05.07.2014 09:12 21,6 C 21,1 C 79 % 1005,1 hPa 0,0 l/m 0 min 0 min 0,0 UV-I 202 W/m 16,7 km/h (3 Bft)
05.07.2014 09:14 21,6 C 20,6 C 79 % 1005,1 hPa 0,0 l/m 0 min 0 min 0,0 UV-I 195 W/m 16,7 km/h (3 Bft)
05.07.2014 09:16 21,5 C 21,1 C 79 % 1005,1 hPa 0,0 l/m 0 min 0 min 0,0 UV-I 200 W/m 14,6 km/h (3 Bft)
05.07.2014 09:18 21,6 C 21,1 C 80 % 1005,1 hPa 0,0 l/m 0 min 0 min 0,0 UV-I 202 W/m 10,5 km/h (2 Bft)
05.07.2014 09:20 21,6 C 21,1 C 79 % 1005,1 hPa 0,0 l/m 0 min 0 min 0,5 UV-I 216 W/m 18,8 km/h (3 Bft)
05.07.2014 09:22 21,6 C 21,1 C 79 % 1005,1 hPa 0,0 l/m 0 min 0 min 0,6 UV-I 230 W/m 16,7 km/h (3 Bft)
05.07.2014 09:24 21,6 C 21,1 C 79 % 1005,2 hPa 0,0 l/m 0 min 0 min 0,6 UV-I 237 W/m 14,6 km/h (3 Bft)
05.07.2014 09:26 21,7 C 21,1 C 80 % 1005,1 hPa 0,0 l/m 0 min 0 min 0,6 UV-I 236 W/m 16,7 km/h (3 Bft)
05.07.2014 09:28 21,8 C 21,1 C 80 % 1005,1 hPa 0,0 l/m 0 min 0 min 0,6 UV-I 230 W/m 12,6 km/h (3 Bft)
05.07.2014 09:30 21,8 C 21,1 C 79 % 1005,1 hPa 0,0 l/m 0 min 0 min 0,5 UV-I 211 W/m 23,0 km/h (4 Bft)
05.07.2014 09:32 21,8 C 21,1 C 79 % 1005,2 hPa 0,0 l/m 0 min 0 min 0,7 UV-I 253 W/m 27,2 km/h (4 Bft)
05.07.2014 09:34 21,8 C 21,1 C 80 % 1005,1 hPa 0,0 l/m 2 min 0 min 0,8 UV-I 327 W/m 14,6 km/h (3 Bft)
05.07.2014 09:36 22,0 C 21,7 C 80 % 1005,1 hPa 0,0 l/m 2 min 0 min 1,2 UV-I 327 W/m 18,8 km/h (3 Bft)
05.07.2014 09:38 22,1 C 21,7 C 79 % 1005,1 hPa 0,0 l/m 2 min 0 min 1,2 UV-I 427 W/m 27,2 km/h (4 Bft)
05.07.2014 09:40 22,2 C 21,7 C 79 % 1005,1 hPa 0,0 l/m 2 min 0 min 1,4 UV-I 429 W/m 18,8 km/h (3 Bft)
05.07.2014 09:42 22,4 C 22,2 C 78 % 1005,2 hPa 0,0 l/m 2 min 0 min 1,4 UV-I 446 W/m 20,9 km/h (4 Bft)
05.07.2014 09:44 22,5 C 22,2 C 75 % 1005,2 hPa 0,0 l/m 2 min 0 min 1,3 UV-I 390 W/m 29,3 km/h (5 Bft)
05.07.2014 09:46 22,6 C 22,2 C 75 % 1005,1 hPa 0,0 l/m 2 min 0 min 1,2 UV-I 322 W/m 29,3 km/h (5 Bft)
05.07.2014 09:48 22,5 C 21,7 C 75 % 1005,2 hPa 0,0 l/m 0 min 0 min 1,0 UV-I 290 W/m 20,9 km/h (4 Bft)
05.07.2014 09:50 22,6 C 21,7 C 76 % 1005,2 hPa 0,0 l/m 0 min 0 min 0,9 UV-I 251 W/m 12,6 km/h (3 Bft)
05.07.2014 09:52 22,4 C 21,7 C 76 % 1005,3 hPa 0,0 l/m 0 min 0 min 0,9 UV-I 246 W/m 31,4 km/h (5 Bft)
05.07.2014 09:54 22,4 C 21,7 C 76 % 1005,4 hPa 0,0 l/m 0 min 0 min 1,0 UV-I 246 W/m 14,6 km/h (3 Bft)
05.07.2014 09:56 22,3 C 21,7 C 76 % 1005,4 hPa 0,0 l/m 2 min 0 min 1,1 UV-I 308 W/m 18,8 km/h (3 Bft)
05.07.2014 09:58 22,3 C 21,7 C 76 % 1005,4 hPa 0,0 l/m 0 min 0 min 0,9 UV-I 248 W/m 23,0 km/h (4 Bft)
05.07.2014 10:00 22,3 C 21,7 C 76 % 1005,4 hPa 0,0 l/m 0 min 0 min 1,0 UV-I 251 W/m 29,3 km/h (5 Bft)
05.07.2014 10:02 22,2 C 21,7 C 76 % 1005,4 hPa 0,0 l/m 0 min 0 min 1,1 UV-I 258 W/m 29,3 km/h (5 Bft)
05.07.2014 10:04 22,2 C 21,7 C 75 % 1005,3 hPa 0,0 l/m 2 min 0 min 1,2 UV-I 355 W/m 33,5 km/h (5 Bft)
05.07.2014 10:06 22,2 C 21,7 C 75 % 1005,4 hPa 0,0 l/m 0 min 0 min 0,9 UV-I 241 W/m 16,7 km/h (3 Bft)
05.07.2014 10:08 22,3 C 21,7 C 75 % 1005,4 hPa 0,0 l/m 0 min 0 min 0,9 UV-I 232 W/m 20,9 km/h (4 Bft)
05.07.2014 10:10 22,2 C 21,1 C 75 % 1005,3 hPa 0,0 l/m 0 min 0 min 0,9 UV-I 190 W/m 25,1 km/h (4 Bft)
05.07.2014 10:12 22,2 C 21,1 C 74 % 1005,4 hPa 0,0 l/m 0 min 0 min 0,9 UV-I 218 W/m 31,4 km/h (5 Bft)
05.07.2014 10:14 22,1 C 21,1 C 75 % 1005,4 hPa 0,0 l/m 0 min 0 min 0,9 UV-I 206 W/m 20,9 km/h (4 Bft)
05.07.2014 10:16 22,1 C 21,1 C 75 % 1005,4 hPa 0,0 l/m 0 min 0 min 0,9 UV-I 181 W/m 31,4 km/h (5 Bft)
05.07.2014 10:18 22,0 C 21,1 C 75 % 1005,4 hPa 0,0 l/m 0 min 0 min 1,0 UV-I 220 W/m 20,9 km/h (4 Bft)
05.07.2014 10:20 22,0 C 21,1 C 75 % 1005,5 hPa 0,0 l/m 0 min 0 min 1,3 UV-I 274 W/m 25,1 km/h (4 Bft)
05.07.2014 10:22 22,1 C 21,1 C 75 % 1005,5 hPa 0,0 l/m 2 min 0 min 1,9 UV-I 399 W/m 23,0 km/h (4 Bft)
05.07.2014 10:24 22,1 C 21,7 C 75 % 1005,5 hPa 0,0 l/m 2 min 0 min 1,9 UV-I 425 W/m 23,0 km/h (4 Bft)
05.07.2014 10:26 22,3 C 22,2 C 75 % 1005,4 hPa 0,0 l/m 2 min 0 min 1,7 UV-I 336 W/m 23,0 km/h (4 Bft)
05.07.2014 10:28 22,4 C 22,2 C 75 % 1005,6 hPa 0,0 l/m 0 min 0 min 1,6 UV-I 329 W/m 25,1 km/h (4 Bft)
05.07.2014 10:30 22,5 C 22,2 C 73 % 1005,5 hPa 0,0 l/m 2 min 0 min 1,8 UV-I 387 W/m 33,5 km/h (5 Bft)
05.07.2014 10:32 22,4 C 22,2 C 73 % 1005,4 hPa 0,0 l/m 0 min 0 min 2,1 UV-I 325 W/m 37,7 km/h (5 Bft)
05.07.2014 10:34 22,4 C 22,2 C 74 % 1005,5 hPa 0,0 l/m 2 min 0 min 1,9 UV-I 352 W/m 37,7 km/h (5 Bft)
05.07.2014 10:36 22,4 C 22,2 C 74 % 1005,5 hPa 0,0 l/m 2 min 0 min 2,0 UV-I 438 W/m 20,9 km/h (4 Bft)
05.07.2014 10:38 22,6 C 22,8 C 74 % 1005,5 hPa 0,0 l/m 0 min 0 min 1,8 UV-I 327 W/m 25,1 km/h (4 Bft)
05.07.2014 10:40 22,6 C 22,2 C 73 % 1005,4 hPa 0,0 l/m 0 min 0 min 1,7 UV-I 316 W/m 27,2 km/h (4 Bft)
05.07.2014 10:42 22,6 C 22,2 C 74 % 1005,4 hPa 0,0 l/m 0 min 0 min 1,8 UV-I 325 W/m 25,1 km/h (4 Bft)
05.07.2014 10:44 22,5 C 22,2 C 74 % 1005,4 hPa 0,0 l/m 2 min 0 min 1,8 UV-I 346 W/m 25,1 km/h (4 Bft)
05.07.2014 10:46 22,5 C 22,2 C 74 % 1005,5 hPa 0,0 l/m 0 min 0 min 1,5 UV-I 323 W/m 25,1 km/h (4 Bft)
05.07.2014 10:48 22,5 C 22,2 C 74 % 1005,5 hPa 0,0 l/m 0 min 0 min 1,6 UV-I 346 W/m 25,1 km/h (4 Bft)
05.07.2014 10:50 22,6 C 22,2 C 74 % 1005,4 hPa 0,0 l/m 0 min 0 min 1,3 UV-I 320 W/m 25,1 km/h (4 Bft)
05.07.2014 10:52 22,6 C 22,2 C 75 % 1005,4 hPa 0,0 l/m 0 min 0 min 0,9 UV-I 221 W/m 20,9 km/h (4 Bft)
05.07.2014 10:54 22,6 C 22,2 C 74 % 1005,4 hPa 0,0 l/m 0 min 0 min 0,0 UV-I 142 W/m 20,9 km/h (4 Bft)
05.07.2014 10:56 22,5 C 21,7 C 74 % 1005,4 hPa 0,0 l/m 0 min 0 min 0,0 UV-I 167 W/m 23,0 km/h (4 Bft)
05.07.2014 10:58 22,4 C 21,7 C 74 % 1005,4 hPa 0,0 l/m 0 min 0 min 1,7 UV-I 234 W/m 35,6 km/h (5 Bft)
05.07.2014 11:00 22,4 C 22,2 C 74 % 1005,4 hPa 0,0 l/m 2 min 0 min 2,4 UV-I 434 W/m 31,4 km/h (5 Bft)
05.07.2014 11:02 22,5 C 22,2 C 73 % 1005,5 hPa 0,0 l/m 0 min 0 min 1,8 UV-I 309 W/m 37,7 km/h (5 Bft)
05.07.2014 11:04 22,5 C 22,2 C 73 % 1005,6 hPa 0,0 l/m 0 min 0 min 0,8 UV-I 206 W/m 23,0 km/h (4 Bft)
05.07.2014 11:06 22,5 C 21,7 C 73 % 1005,6 hPa 0,0 l/m 0 min 0 min 0,9 UV-I 209 W/m 27,2 km/h (4 Bft)
05.07.2014 11:08 22,4 C 21,7 C 73 % 1005,7 hPa 0,0 l/m 0 min 2 min 1,1 UV-I 218 W/m 33,5 km/h (5 Bft)
05.07.2014 11:10 22,2 C 21,1 C 73 % 1005,8 hPa 0,0 l/m 0 min 2 min 0,9 UV-I 188 W/m 41,8 km/h (6 Bft)
05.07.2014 11:12 21,9 C 20,6 C 75 % 1005,8 hPa 0,0 l/m 0 min 2 min 0,8 UV-I 183 W/m 33,5 km/h (5 Bft)
05.07.2014 11:14 21,6 C 20,0 C 77 % 1005,9 hPa 0,0 l/m 0 min 2 min 0,6 UV-I 155 W/m 29,3 km/h (5 Bft)
05.07.2014 11:16 21,2 C 18,9 C 78 % 1005,9 hPa 0,0 l/m 0 min 2 min 0,6 UV-I 158 W/m 31,4 km/h (5 Bft)
05.07.2014 11:18 20,9 C 18,9 C 81 % 1006,0 hPa 0,0 l/m 0 min 2 min 0,7 UV-I 165 W/m 31,4 km/h (5 Bft)
05.07.2014 11:20 20,6 C 18,3 C 82 % 1006,0 hPa 0,0 l/m 0 min 2 min 0,8 UV-I 169 W/m 29,3 km/h (5 Bft)
05.07.2014 11:22 20,3 C 17,8 C 83 % 1006,0 hPa 0,0 l/m 0 min 2 min 0,8 UV-I 169 W/m 29,3 km/h (5 Bft)
05.07.2014 11:24 20,0 C 17,8 C 85 % 1006,0 hPa 0,0 l/m 0 min 2 min 0,7 UV-I 158 W/m 23,0 km/h (4 Bft)
05.07.2014 11:26 19,8 C 17,2 C 86 % 1006,1 hPa 0,2 l/m 0 min 2 min 0,5 UV-I 141 W/m 20,9 km/h (4 Bft)
05.07.2014 11:28 19,7 C 17,2 C 87 % 1006,0 hPa 0,2 l/m 0 min 2 min 0,0 UV-I 130 W/m 27,2 km/h (4 Bft)
05.07.2014 11:30 19,5 C 17,2 C 88 % 1006,0 hPa 0,0 l/m 0 min 2 min 0,0 UV-I 127 W/m 25,1 km/h (4 Bft)
05.07.2014 11:32 19,3 C 17,2 C 89 % 1006,0 hPa 0,0 l/m 0 min 2 min 0,0 UV-I 128 W/m 16,7 km/h (3 Bft)
05.07.2014 11:34 19,2 C 17,2 C 90 % 1006,1 hPa 0,2 l/m 0 min 2 min 0,0 UV-I 128 W/m 16,7 km/h (3 Bft)
05.07.2014 11:36 19,1 C 17,2 C 91 % 1006,1 hPa 0,0 l/m 0 min 2 min 0,0 UV-I 123 W/m 20,9 km/h (4 Bft)
05.07.2014 11:38 19,0 C 17,2 C 91 % 1006,1 hPa 0,2 l/m 0 min 2 min 0,5 UV-I 139 W/m 18,8 km/h (3 Bft)
05.07.2014 11:40 18,9 C 17,2 C 92 % 1006,1 hPa 0,0 l/m 0 min 2 min 0,6 UV-I 153 W/m 23,0 km/h (4 Bft)
05.07.2014 11:42 18,9 C 17,2 C 92 % 1006,1 hPa 0,0 l/m 0 min 2 min 0,8 UV-I 167 W/m 16,7 km/h (3 Bft)
05.07.2014 11:44 18,9 C 17,8 C 92 % 1006,0 hPa 0,0 l/m 0 min 2 min 0,9 UV-I 178 W/m 29,3 km/h (5 Bft)
05.07.2014 11:46 18,9 C 17,8 C 93 % 1006,1 hPa 0,0 l/m 0 min 2 min 0,9 UV-I 179 W/m 16,7 km/h (3 Bft)
05.07.2014 11:48 18,9 C 17,2 C 93 % 1006,1 hPa 0,0 l/m 0 min 2 min 0,9 UV-I 176 W/m 18,8 km/h (3 Bft)
05.07.2014 11:50 18,9 C 17,2 C 93 % 1006,1 hPa 0,0 l/m 0 min 2 min 0,8 UV-I 172 W/m 18,8 km/h (3 Bft)
05.07.2014 11:52 18,9 C 17,8 C 93 % 1006,1 hPa 0,2 l/m 0 min 2 min 0,8 UV-I 167 W/m 8,4 km/h (2 Bft)
05.07.2014 11:54 19,0 C 17,8 C 94 % 1006,2 hPa 0,0 l/m 0 min 2 min 0,8 UV-I 167 W/m 12,6 km/h (3 Bft)
05.07.2014 11:56 18,9 C 17,8 C 94 % 1006,1 hPa 0,0 l/m 0 min 2 min 0,8 UV-I 172 W/m 16,7 km/h (3 Bft)
05.07.2014 11:58 19,1 C 17,8 C 94 % 1006,1 hPa 0,0 l/m 0 min 2 min 0,9 UV-I 185 W/m 8,4 km/h (2 Bft)
05.07.2014 12:00 19,1 C 17,8 C 94 % 1006,1 hPa 0,0 l/m 0 min 2 min 1,0 UV-I 185 W/m 12,6 km/h (3 Bft)
05.07.2014 12:02 19,0 C 17,8 C 94 % 1006,0 hPa 0,0 l/m 0 min 2 min 0,8 UV-I 176 W/m 16,7 km/h (3 Bft)
05.07.2014 12:06 19,1 C 17,8 C 94 % 1006,0 hPa 0,2 l/m 0 min 2 min 0,9 UV-I 195 W/m 18,8 km/h (3 Bft)
05.07.2014 12:08 19,1 C 17,8 C 94 % 1006,1 hPa 0,0 l/m 0 min 2 min 1,1 UV-I 207 W/m 14,6 km/h (3 Bft)
05.07.2014 12:10 19,1 C 17,8 C 94 % 1006,1 hPa 0,0 l/m 0 min 2 min 1,2 UV-I 216 W/m 12,6 km/h (3 Bft)
05.07.2014 12:12 19,2 C 17,8 C 94 % 1006,1 hPa 0,0 l/m 0 min 2 min 1,1 UV-I 197 W/m 10,5 km/h (2 Bft)
05.07.2014 12:14 19,2 C 17,8 C 94 % 1006,1 hPa 0,0 l/m 0 min 2 min 0,8 UV-I 165 W/m 8,4 km/h (2 Bft)
05.07.2014 12:16 19,2 C 18,3 C 94 % 1006,1 hPa 0,0 l/m 0 min 2 min 0,6 UV-I 146 W/m 14,6 km/h (3 Bft)
05.07.2014 12:18 19,1 C 17,8 C 94 % 1006,1 hPa 0,0 l/m 0 min 2 min 0,7 UV-I 174 W/m 12,6 km/h (3 Bft)
05.07.2014 12:20 19,2 C 17,8 C 94 % 1006,1 hPa 0,0 l/m 0 min 2 min 1,0 UV-I 190 W/m 14,6 km/h (3 Bft)
05.07.2014 12:22 19,2 C 17,8 C 94 % 1006,1 hPa 0,0 l/m 0 min 2 min 1,0 UV-I 197 W/m 10,5 km/h (2 Bft)
05.07.2014 12:24 19,3 C 18,3 C 95 % 1006,0 hPa 0,0 l/m 0 min 2 min 1,0 UV-I 199 W/m 12,6 km/h (3 Bft)
05.07.2014 12:26 19,4 C 18,3 C 95 % 1006,1 hPa 0,2 l/m 0 min 2 min 1,0 UV-I 197 W/m 8,4 km/h (2 Bft)
05.07.2014 12:28 19,3 C 17,8 C 95 % 1006,1 hPa 0,0 l/m 0 min 2 min 1,0 UV-I 195 W/m 14,6 km/h (3 Bft)
05.07.2014 12:30 19,3 C 18,3 C 95 % 1006,1 hPa 0,0 l/m 0 min 2 min 0,9 UV-I 181 W/m 18,8 km/h (3 Bft)
05.07.2014 12:32 19,3 C 18,3 C 95 % 1006,1 hPa 0,0 l/m 0 min 2 min 1,0 UV-I 188 W/m 16,7 km/h (3 Bft)
05.07.2014 12:34 19,3 C 18,3 C 95 % 1006,0 hPa 0,0 l/m 0 min 2 min 1,3 UV-I 218 W/m 14,6 km/h (3 Bft)
05.07.2014 12:36 19,4 C 18,3 C 95 % 1006,0 hPa 0,0 l/m 0 min 2 min 1,4 UV-I 248 W/m 12,6 km/h (3 Bft)
05.07.2014 12:38 19,4 C 18,3 C 95 % 1006,0 hPa 0,2 l/m 0 min 2 min 1,7 UV-I 265 W/m 18,8 km/h (3 Bft)
05.07.2014 12:40 19,4 C 18,3 C 95 % 1006,0 hPa 0,0 l/m 0 min 2 min 2,0 UV-I 301 W/m 8,4 km/h (2 Bft)
05.07.2014 12:42 19,7 C 18,9 C 95 % 1006,0 hPa 0,0 l/m 0 min 2 min 2,4 UV-I 316 W/m 10,5 km/h (2 Bft)
05.07.2014 12:44 19,8 C 19,4 C 95 % 1006,0 hPa 0,0 l/m 0 min 2 min 2,5 UV-I 322 W/m 14,6 km/h (3 Bft)
05.07.2014 12:46 19,9 C 18,9 C 95 % 1006,0 hPa 0,0 l/m 0 min 2 min 2,0 UV-I 258 W/m 8,4 km/h (2 Bft)
05.07.2014 12:48 19,9 C 18,9 C 95 % 1006,0 hPa 0,0 l/m 0 min 2 min 0,6 UV-I 134 W/m 6,3 km/h (2 Bft)
05.07.2014 12:50 19,9 C 18,9 C 95 % 1006,0 hPa 0,0 l/m 0 min 2 min 0,0 UV-I 79 W/m 6,3 km/h (2 Bft)
05.07.2014 12:52 19,8 C 18,3 C 95 % 1006,0 hPa 0,0 l/m 0 min 2 min 0,0 UV-I 70 W/m 10,5 km/h (2 Bft)
05.07.2014 12:54 19,7 C 18,3 C 95 % 1006,0 hPa 0,0 l/m 0 min 2 min 0,0 UV-I 60 W/m 10,5 km/h (2 Bft)
05.07.2014 12:56 19,6 C 18,3 C 95 % 1006,0 hPa 0,0 l/m 0 min 2 min 0,0 UV-I 46 W/m 14,6 km/h (3 Bft)
05.07.2014 12:58 19,5 C 17,8 C 95 % 1006,0 hPa 0,0 l/m 0 min 2 min 0,0 UV-I 40 W/m 14,6 km/h (3 Bft)
05.07.2014 13:00 19,4 C 17,8 C 94 % 1006,0 hPa 0,0 l/m 0 min 2 min 0,0 UV-I 44 W/m 14,6 km/h (3 Bft)
05.07.2014 13:02 19,3 C 17,8 C 94 % 1006,0 hPa 0,0 l/m 0 min 2 min 0,0 UV-I 91 W/m 14,6 km/h (3 Bft)
05.07.2014 13:04 19,3 C 17,8 C 94 % 1006,0 hPa 0,0 l/m 0 min 2 min 0,0 UV-I 88 W/m 20,9 km/h (4 Bft)
05.07.2014 13:06 19,3 C 17,8 C 94 % 1006,1 hPa 0,0 l/m 0 min 2 min 0,0 UV-I 97 W/m 35,6 km/h (5 Bft)
05.07.2014 13:08 19,2 C 17,8 C 95 % 1006,1 hPa 0,0 l/m 0 min 2 min 0,0 UV-I 107 W/m 27,2 km/h (4 Bft)
05.07.2014 13:10 19,2 C 17,8 C 95 % 1006,1 hPa 0,0 l/m 0 min 2 min 0,0 UV-I 98 W/m 20,9 km/h (4 Bft)
05.07.2014 13:12 19,1 C 17,8 C 95 % 1006,2 hPa 0,0 l/m 0 min 2 min 0,0 UV-I 113 W/m 33,5 km/h (5 Bft)
05.07.2014 13:14 19,1 C 17,8 C 95 % 1006,2 hPa 0,0 l/m 0 min 2 min 0,0 UV-I 111 W/m 23,0 km/h (4 Bft)
05.07.2014 13:16 19,1 C 17,2 C 95 % 1006,2 hPa 0,0 l/m 0 min 2 min 0,0 UV-I 54 W/m 20,9 km/h (4 Bft)
05.07.2014 13:18 19,1 C 17,2 C 94 % 1006,2 hPa 0,0 l/m 0 min 2 min 0,0 UV-I 51 W/m 16,7 km/h (3 Bft)
05.07.2014 13:20 19,1 C 17,2 C 94 % 1006,2 hPa 0,2 l/m 0 min 2 min 0,0 UV-I 77 W/m 18,8 km/h (3 Bft)
05.07.2014 13:22 19,1 C 17,8 C 94 % 1006,3 hPa 0,0 l/m 0 min 2 min 0,6 UV-I 116 W/m 16,7 km/h (3 Bft)
05.07.2014 13:24 19,0 C 17,2 C 94 % 1006,3 hPa 0,0 l/m 0 min 2 min 0,0 UV-I 100 W/m 31,4 km/h (5 Bft)
05.07.2014 13:26 19,1 C 17,2 C 94 % 1006,3 hPa 0,0 l/m 0 min 2 min 0,0 UV-I 95 W/m 25,1 km/h (4 Bft)
05.07.2014 13:28 19,0 C 17,2 C 94 % 1006,3 hPa 0,0 l/m 0 min 2 min 0,9 UV-I 206 W/m 25,1 km/h (4 Bft)
05.07.2014 13:30 19,1 C 17,8 C 94 % 1006,3 hPa 0,0 l/m 0 min 2 min 1,7 UV-I 255 W/m 20,9 km/h (4 Bft)
05.07.2014 13:32 19,1 C 17,8 C 94 % 1006,3 hPa 0,0 l/m 0 min 2 min 2,3 UV-I 311 W/m 14,6 km/h (3 Bft)
05.07.2014 13:34 19,2 C 18,3 C 94 % 1006,2 hPa 0,0 l/m 0 min 2 min 2,3 UV-I 311 W/m 14,6 km/h (3 Bft)
05.07.2014 13:36 19,3 C 18,3 C 94 % 1006,2 hPa 0,0 l/m 0 min 2 min 2,1 UV-I 297 W/m 16,7 km/h (3 Bft)
05.07.2014 13:38 19,5 C 18,3 C 95 % 1006,3 hPa 0,0 l/m 0 min 2 min 2,1 UV-I 304 W/m 18,8 km/h (3 Bft)
05.07.2014 13:40 19,5 C 18,3 C 94 % 1006,3 hPa 0,0 l/m 0 min 0 min 2,0 UV-I 290 W/m 16,7 km/h (3 Bft)
05.07.2014 13:42 19,5 C 18,3 C 94 % 1006,3 hPa 0,0 l/m 0 min 0 min 2,1 UV-I 295 W/m 31,4 km/h (5 Bft)
05.07.2014 13:44 19,5 C 18,3 C 93 % 1006,3 hPa 0,0 l/m 0 min 2 min 2,1 UV-I 292 W/m 25,1 km/h (4 Bft)
05.07.2014 13:46 19,5 C 17,8 C 93 % 1006,2 hPa 0,0 l/m 0 min 2 min 1,9 UV-I 267 W/m 23,0 km/h (4 Bft)
05.07.2014 13:48 19,7 C 18,3 C 93 % 1006,3 hPa 0,0 l/m 0 min 2 min 1,9 UV-I 279 W/m 16,7 km/h (3 Bft)
05.07.2014 13:50 19,6 C 18,3 C 92 % 1006,2 hPa 0,0 l/m 0 min 2 min 1,9 UV-I 287 W/m 25,1 km/h (4 Bft)
05.07.2014 13:52 19,7 C 18,3 C 92 % 1006,2 hPa 0,0 l/m 0 min 2 min 2,1 UV-I 297 W/m 23,0 km/h (4 Bft)
05.07.2014 13:54 19,7 C 18,9 C 93 % 1006,2 hPa 0,0 l/m 0 min 2 min 1,9 UV-I 276 W/m 25,1 km/h (4 Bft)
05.07.2014 13:56 19,8 C 18,9 C 93 % 1006,3 hPa 0,0 l/m 0 min 2 min 1,8 UV-I 290 W/m 12,6 km/h (3 Bft)
05.07.2014 13:58 19,9 C 18,9 C 93 % 1006,3 hPa 0,0 l/m 0 min 2 min 1,4 UV-I 234 W/m 10,5 km/h (2 Bft)
05.07.2014 14:00 19,9 C 18,9 C 92 % 1006,3 hPa 0,0 l/m 0 min 2 min 1,2 UV-I 218 W/m 14,6 km/h (3 Bft)
05.07.2014 14:02 19,9 C 18,3 C 92 % 1006,3 hPa 0,0 l/m 0 min 2 min 1,3 UV-I 232 W/m 23,0 km/h (4 Bft)
05.07.2014 14:04 19,9 C 18,3 C 92 % 1006,3 hPa 0,0 l/m 0 min 0 min 1,9 UV-I 297 W/m 16,7 km/h (3 Bft)
05.07.2014 14:06 19,9 C 18,9 C 92 % 1006,3 hPa 0,0 l/m 0 min 0 min 2,7 UV-I 388 W/m 20,9 km/h (4 Bft)
05.07.2014 14:08 19,9 C 18,9 C 91 % 1006,2 hPa 0,0 l/m 2 min 0 min 3,1 UV-I 446 W/m 31,4 km/h (5 Bft)
05.07.2014 14:10 20,1 C 19,4 C 91 % 1006,2 hPa 0,0 l/m 2 min 0 min 3,0 UV-I 431 W/m 23,0 km/h (4 Bft)
05.07.2014 14:12 20,2 C 19,4 C 91 % 1006,3 hPa 0,0 l/m 2 min 0 min 3,1 UV-I 454 W/m 18,8 km/h (3 Bft)
05.07.2014 14:14 20,4 C 20,0 C 91 % 1006,2 hPa 0,0 l/m 2 min 0 min 3,0 UV-I 439 W/m 8,4 km/h (2 Bft)
05.07.2014 14:16 20,7 C 20,0 C 91 % 1006,3 hPa 0,0 l/m 0 min 2 min 2,8 UV-I 411 W/m 12,6 km/h (3 Bft)
05.07.2014 14:18 20,7 C 20,0 C 90 % 1006,3 hPa 0,0 l/m 0 min 2 min 2,8 UV-I 406 W/m 8,4 km/h (2 Bft)
05.07.2014 14:20 20,8 C 20,0 C 90 % 1006,3 hPa 0,0 l/m 0 min 2 min 2,4 UV-I 355 W/m 14,6 km/h (3 Bft)
05.07.2014 14:22 21,1 C 20,0 C 91 % 1006,3 hPa 0,0 l/m 0 min 0 min 1,6 UV-I 255 W/m 14,6 km/h (3 Bft)
05.07.2014 14:24 21,0 C 20,0 C 90 % 1006,2 hPa 0,0 l/m 0 min 0 min 1,8 UV-I 287 W/m 20,9 km/h (4 Bft)
05.07.2014 14:26 20,9 C 19,4 C 89 % 1006,3 hPa 0,0 l/m 0 min 2 min 2,0 UV-I 294 W/m 20,9 km/h (4 Bft)
05.07.2014 14:28 20,8 C 19,4 C 87 % 1006,2 hPa 0,0 l/m 0 min 0 min 2,2 UV-I 330 W/m 27,2 km/h (4 Bft)
05.07.2014 14:30 20,8 C 20,0 C 88 % 1006,2 hPa 0,0 l/m 0 min 0 min 2,3 UV-I 325 W/m 20,9 km/h (4 Bft)
05.07.2014 14:32 20,9 C 20,0 C 88 % 1006,1 hPa 0,0 l/m 0 min 0 min 2,0 UV-I 287 W/m 25,1 km/h (4 Bft)
05.07.2014 14:34 20,8 C 19,4 C 87 % 1006,2 hPa 0,0 l/m 0 min 0 min 1,7 UV-I 265 W/m 20,9 km/h (4 Bft)
05.07.2014 14:36 20,9 C 19,4 C 88 % 1006,2 hPa 0,0 l/m 0 min 0 min 1,7 UV-I 264 W/m 18,8 km/h (3 Bft)
05.07.2014 14:38 21,0 C 20,0 C 88 % 1006,2 hPa 0,0 l/m 0 min 0 min 1,7 UV-I 285 W/m 10,5 km/h (2 Bft)
05.07.2014 14:40 21,0 C 20,0 C 88 % 1006,1 hPa 0,0 l/m 0 min 0 min 2,1 UV-I 297 W/m 16,7 km/h (3 Bft)
05.07.2014 14:42 21,1 C 20,0 C 89 % 1006,2 hPa 0,0 l/m 0 min 0 min 2,2 UV-I 320 W/m 16,7 km/h (3 Bft)
05.07.2014 14:44 21,2 C 20,6 C 89 % 1006,1 hPa 0,0 l/m 0 min 0 min 2,2 UV-I 325 W/m 18,8 km/h (3 Bft)
05.07.2014 14:46 21,2 C 20,0 C 87 % 1006,2 hPa 0,0 l/m 0 min 0 min 1,9 UV-I 288 W/m 20,9 km/h (4 Bft)
05.07.2014 14:48 21,2 C 20,0 C 86 % 1006,1 hPa 0,0 l/m 0 min 0 min 1,6 UV-I 253 W/m 20,9 km/h (4 Bft)
05.07.2014 14:50 21,1 C 20,0 C 87 % 1006,2 hPa 0,0 l/m 0 min 0 min 1,2 UV-I 195 W/m 18,8 km/h (3 Bft)
05.07.2014 14:52 21,1 C 19,4 C 87 % 1006,2 hPa 0,0 l/m 0 min 0 min 1,0 UV-I 192 W/m 18,8 km/h (3 Bft)
05.07.2014 14:54 21,1 C 19,4 C 87 % 1006,2 hPa 0,0 l/m 0 min 0 min 1,1 UV-I 202 W/m 14,6 km/h (3 Bft)
05.07.2014 14:56 21,0 C 19,4 C 87 % 1006,2 hPa 0,0 l/m 0 min 0 min 0,9 UV-I 135 W/m 14,6 km/h (3 Bft)
05.07.2014 14:58 21,0 C 19,4 C 87 % 1006,2 hPa 0,0 l/m 0 min 0 min 0,0 UV-I 100 W/m 16,7 km/h (3 Bft)
05.07.2014 15:00 20,9 C 18,9 C 86 % 1006,2 hPa 0,0 l/m 0 min 0 min 0,0 UV-I 98 W/m 12,6 km/h (3 Bft)
05.07.2014 15:02 20,9 C 18,9 C 87 % 1006,2 hPa 0,0 l/m 0 min 0 min 0,0 UV-I 90 W/m 18,8 km/h (3 Bft)
05.07.2014 15:04 20,8 C 18,9 C 87 % 1006,2 hPa 0,0 l/m 0 min 0 min 0,0 UV-I 105 W/m 20,9 km/h (4 Bft)
05.07.2014 15:06 20,7 C 18,9 C 87 % 1006,1 hPa 0,0 l/m 0 min 2 min 0,7 UV-I 160 W/m 48,1 km/h (6 Bft)
05.07.2014 15:08 20,7 C 18,9 C 87 % 1006,3 hPa 0,0 l/m 0 min 0 min 0,6 UV-I 120 W/m 27,2 km/h (4 Bft)
05.07.2014 15:10 20,6 C 18,9 C 87 % 1006,3 hPa 0,0 l/m 0 min 0 min 0,0 UV-I 128 W/m 25,1 km/h (4 Bft)
05.07.2014 15:12 20,4 C 18,3 C 87 % 1006,4 hPa 0,0 l/m 0 min 0 min 0,6 UV-I 151 W/m 29,3 km/h (5 Bft)
05.07.2014 15:14 20,4 C 18,3 C 87 % 1006,4 hPa 0,0 l/m 0 min 2 min 0,8 UV-I 171 W/m 31,4 km/h (5 Bft)
05.07.2014 15:16 20,2 C 18,3 C 88 % 1006,4 hPa 0,0 l/m 0 min 2 min 0,8 UV-I 181 W/m 23,0 km/h (4 Bft)
05.07.2014 15:18 20,2 C 18,3 C 89 % 1006,4 hPa 0,0 l/m 0 min 2 min 1,3 UV-I 236 W/m 25,1 km/h (4 Bft)
05.07.2014 15:20 20,0 C 18,3 C 90 % 1006,3 hPa 0,0 l/m 0 min 2 min 1,7 UV-I 329 W/m 18,8 km/h (3 Bft)
05.07.2014 15:22 20,0 C 18,9 C 91 % 1006,3 hPa 0,0 l/m 0 min 0 min 2,3 UV-I 381 W/m 20,9 km/h (4 Bft)
05.07.2014 15:24 20,1 C 18,9 C 92 % 1006,3 hPa 0,0 l/m 0 min 0 min 2,4 UV-I 383 W/m 12,6 km/h (3 Bft)
05.07.2014 15:26 20,2 C 19,4 C 92 % 1006,3 hPa 0,0 l/m 0 min 0 min 2,2 UV-I 352 W/m 10,5 km/h (2 Bft)
05.07.2014 15:28 20,3 C 19,4 C 92 % 1006,2 hPa 0,0 l/m 0 min 0 min 2,2 UV-I 360 W/m 16,7 km/h (3 Bft)
05.07.2014 15:30 20,4 C 19,4 C 91 % 1006,3 hPa 0,0 l/m 0 min 0 min 2,3 UV-I 367 W/m 18,8 km/h (3 Bft)
05.07.2014 15:32 20,5 C 19,4 C 91 % 1006,2 hPa 0,0 l/m 0 min 0 min 2,1 UV-I 323 W/m 18,8 km/h (3 Bft)
05.07.2014 15:34 20,6 C 19,4 C 90 % 1006,3 hPa 0,0 l/m 0 min 0 min 1,8 UV-I 290 W/m 20,9 km/h (4 Bft)
05.07.2014 15:36 20,7 C 19,4 C 89 % 1006,3 hPa 0,0 l/m 0 min 0 min 1,7 UV-I 274 W/m 33,5 km/h (5 Bft)
05.07.2014 15:38 20,8 C 19,4 C 89 % 1006,2 hPa 0,0 l/m 0 min 0 min 1,5 UV-I 265 W/m 23,0 km/h (4 Bft)
05.07.2014 15:40 20,9 C 19,4 C 90 % 1006,2 hPa 0,0 l/m 0 min 0 min 1,4 UV-I 250 W/m 18,8 km/h (3 Bft)
05.07.2014 15:42 20,8 C 19,4 C 89 % 1006,2 hPa 0,0 l/m 0 min 0 min 1,3 UV-I 234 W/m 18,8 km/h (3 Bft)
05.07.2014 15:44 20,9 C 19,4 C 88 % 1006,2 hPa 0,0 l/m 0 min 0 min 1,1 UV-I 225 W/m 18,8 km/h (3 Bft)
05.07.2014 15:46 20,8 C 19,4 C 88 % 1006,3 hPa 0,0 l/m 0 min 0 min 1,0 UV-I 209 W/m 25,1 km/h (4 Bft)
05.07.2014 15:48 20,8 C 19,4 C 88 % 1006,3 hPa 0,0 l/m 0 min 0 min 1,1 UV-I 225 W/m 29,3 km/h (5 Bft)
05.07.2014 15:50 20,8 C 19,4 C 88 % 1006,3 hPa 0,0 l/m 0 min 0 min 1,5 UV-I 265 W/m 29,3 km/h (5 Bft)
05.07.2014 15:52 20,9 C 19,4 C 88 % 1006,2 hPa 0,0 l/m 0 min 0 min 1,5 UV-I 276 W/m 12,6 km/h (3 Bft)
05.07.2014 15:54 21,0 C 20,0 C 88 % 1006,3 hPa 0,0 l/m 0 min 0 min 1,6 UV-I 311 W/m 20,9 km/h (4 Bft)
05.07.2014 15:56 21,0 C 20,0 C 88 % 1006,2 hPa 0,0 l/m 0 min 0 min 2,0 UV-I 359 W/m 25,1 km/h (4 Bft)
05.07.2014 15:58 21,1 C 20,0 C 88 % 1006,2 hPa 0,0 l/m 2 min 0 min 2,3 UV-I 396 W/m 27,2 km/h (4 Bft)
05.07.2014 16:00 21,2 C 20,6 C 87 % 1006,0 hPa 0,0 l/m 2 min 0 min 2,3 UV-I 378 W/m 20,9 km/h (4 Bft)
05.07.2014 16:02 21,4 C 20,6 C 88 % 1006,1 hPa 0,0 l/m 0 min 0 min 2,1 UV-I 353 W/m 16,7 km/h (3 Bft)
05.07.2014 16:04 21,6 C 21,1 C 87 % 1006,1 hPa 0,0 l/m 0 min 0 min 1,9 UV-I 316 W/m 16,7 km/h (3 Bft)
05.07.2014 16:06 21,7 C 20,6 C 86 % 1006,1 hPa 0,0 l/m 0 min 0 min 1,6 UV-I 262 W/m 14,6 km/h (3 Bft)
05.07.2014 16:08 21,7 C 20,6 C 86 % 1006,0 hPa 0,0 l/m 0 min 0 min 1,2 UV-I 230 W/m 23,0 km/h (4 Bft)
05.07.2014 16:10 21,7 C 20,6 C 85 % 1006,2 hPa 0,0 l/m 0 min 0 min 1,0 UV-I 207 W/m 29,3 km/h (5 Bft)
05.07.2014 16:12 21,6 C 20,0 C 85 % 1006,2 hPa 0,0 l/m 0 min 0 min 1,1 UV-I 269 W/m 33,5 km/h (5 Bft)
05.07.2014 16:14 21,5 C 20,0 C 85 % 1006,1 hPa 0,0 l/m 0 min 0 min 1,8 UV-I 313 W/m 16,7 km/h (3 Bft)
05.07.2014 16:16 21,6 C 20,6 C 85 % 1006,2 hPa 0,0 l/m 0 min 0 min 1,7 UV-I 292 W/m 29,3 km/h (5 Bft)
05.07.2014 16:18 21,6 C 20,6 C 85 % 1006,1 hPa 0,0 l/m 0 min 0 min 1,2 UV-I 209 W/m 23,0 km/h (4 Bft)
05.07.2014 16:20 21,6 C 20,0 C 84 % 1006,2 hPa 0,0 l/m 0 min 0 min 0,9 UV-I 190 W/m 27,2 km/h (4 Bft)
05.07.2014 16:22 21,6 C 20,0 C 83 % 1006,2 hPa 0,0 l/m 0 min 0 min 0,5 UV-I 149 W/m 18,8 km/h (3 Bft)
05.07.2014 16:24 21,6 C 20,0 C 84 % 1006,2 hPa 0,0 l/m 0 min 0 min 0,0 UV-I 111 W/m 31,4 km/h (5 Bft)
05.07.2014 16:26 21,5 C 19,4 C 84 % 1006,2 hPa 0,0 l/m 0 min 0 min 0,0 UV-I 105 W/m 18,8 km/h (3 Bft)
05.07.2014 16:28 21,4 C 19,4 C 84 % 1006,3 hPa 0,0 l/m 0 min 0 min 0,0 UV-I 116 W/m 14,6 km/h (3 Bft)
05.07.2014 16:30 21,4 C 19,4 C 84 % 1006,3 hPa 0,0 l/m 0 min 0 min 0,0 UV-I 162 W/m 18,8 km/h (3 Bft)
05.07.2014 16:32 21,4 C 20,0 C 85 % 1006,4 hPa 0,0 l/m 0 min 0 min 0,6 UV-I 167 W/m 20,9 km/h (4 Bft)
05.07.2014 16:34 21,5 C 20,0 C 85 % 1006,3 hPa 0,0 l/m 0 min 0 min 0,9 UV-I 230 W/m 23,0 km/h (4 Bft)
05.07.2014 16:36 21,6 C 20,6 C 84 % 1006,4 hPa 0,0 l/m 2 min 0 min 1,6 UV-I 348 W/m 18,8 km/h (3 Bft)
05.07.2014 16:38 21,7 C 20,6 C 84 % 1006,4 hPa 0,0 l/m 2 min 0 min 1,9 UV-I 401 W/m 16,7 km/h (3 Bft)
05.07.2014 16:40 21,9 C 21,1 C 84 % 1006,4 hPa 0,0 l/m 2 min 0 min 2,1 UV-I 420 W/m 23,0 km/h (4 Bft)
05.07.2014 16:42 22,1 C 21,7 C 84 % 1006,3 hPa 0,0 l/m 2 min 0 min 2,0 UV-I 425 W/m 20,9 km/h (4 Bft)
05.07.2014 16:44 22,2 C 21,7 C 83 % 1006,4 hPa 0,0 l/m 2 min 0 min 2,2 UV-I 436 W/m 16,7 km/h (3 Bft)
05.07.2014 16:46 22,3 C 21,7 C 82 % 1006,4 hPa 0,0 l/m 2 min 0 min 1,7 UV-I 355 W/m 14,6 km/h (3 Bft)
05.07.2014 16:48 22,4 C 21,7 C 82 % 1006,4 hPa 0,0 l/m 2 min 0 min 1,5 UV-I 338 W/m 10,5 km/h (2 Bft)
05.07.2014 16:50 22,7 C 21,7 C 82 % 1006,4 hPa 0,0 l/m 2 min 0 min 1,5 UV-I 353 W/m 25,1 km/h (4 Bft)
05.07.2014 16:52 22,6 C 21,7 C 80 % 1006,4 hPa 0,0 l/m 2 min 0 min 1,6 UV-I 350 W/m 20,9 km/h (4 Bft)
05.07.2014 16:54 22,6 C 22,2 C 81 % 1006,4 hPa 0,0 l/m 2 min 0 min 1,8 UV-I 394 W/m 14,6 km/h (3 Bft)
05.07.2014 16:56 22,7 C 22,2 C 81 % 1006,4 hPa 0,0 l/m 2 min 0 min 1,6 UV-I 339 W/m 14,6 km/h (3 Bft)
05.07.2014 16:58 22,7 C 22,2 C 80 % 1006,4 hPa 0,0 l/m 0 min 0 min 1,2 UV-I 271 W/m 27,2 km/h (4 Bft)
05.07.2014 17:00 22,6 C 21,7 C 79 % 1006,4 hPa 0,0 l/m 0 min 0 min 1,1 UV-I 260 W/m 33,5 km/h (5 Bft)
05.07.2014 17:02 22,3 C 21,7 C 79 % 1006,5 hPa 0,0 l/m 2 min 0 min 1,5 UV-I 374 W/m 27,2 km/h (4 Bft)
05.07.2014 17:04 22,3 C 21,7 C 80 % 1006,3 hPa 0,0 l/m 2 min 0 min 1,7 UV-I 424 W/m 27,2 km/h (4 Bft)
05.07.2014 17:06 22,3 C 21,7 C 80 % 1006,4 hPa 0,0 l/m 0 min 0 min 1,4 UV-I 295 W/m 33,5 km/h (5 Bft)
05.07.2014 17:08 22,1 C 21,1 C 80 % 1006,5 hPa 0,0 l/m 0 min 0 min 1,3 UV-I 304 W/m 33,5 km/h (5 Bft)
05.07.2014 17:10 22,0 C 21,1 C 81 % 1006,5 hPa 0,0 l/m 0 min 0 min 1,2 UV-I 288 W/m 29,3 km/h (5 Bft)
05.07.2014 17:12 21,9 C 21,1 C 81 % 1006,5 hPa 0,0 l/m 0 min 0 min 0,9 UV-I 241 W/m 23,0 km/h (4 Bft)
05.07.2014 17:14 21,8 C 21,1 C 82 % 1006,5 hPa 0,0 l/m 0 min 0 min 0,8 UV-I 218 W/m 25,1 km/h (4 Bft)
05.07.2014 17:16 21,7 C 21,1 C 82 % 1006,5 hPa 0,0 l/m 0 min 0 min 0,0 UV-I 120 W/m 16,7 km/h (3 Bft)
05.07.2014 17:18 21,7 C 20,6 C 82 % 1006,5 hPa 0,0 l/m 0 min 0 min 0,0 UV-I 130 W/m 14,6 km/h (3 Bft)
05.07.2014 17:20 21,6 C 20,6 C 83 % 1006,5 hPa 0,0 l/m 0 min 0 min 0,6 UV-I 202 W/m 14,6 km/h (3 Bft)
05.07.2014 17:22 21,5 C 21,1 C 84 % 1006,5 hPa 0,0 l/m 2 min 0 min 1,0 UV-I 751 W/m 18,8 km/h (3 Bft)
05.07.2014 17:24 21,6 C 21,1 C 84 % 1006,5 hPa 0,0 l/m 2 min 0 min 1,2 UV-I 751 W/m 23,0 km/h (4 Bft)
05.07.2014 17:26 21,8 C 21,1 C 84 % 1006,5 hPa 0,0 l/m 2 min 0 min 1,1 UV-I 751 W/m 18,8 km/h (3 Bft)
05.07.2014 17:28 22,0 C 21,1 C 85 % 1006,4 hPa 0,0 l/m 2 min 0 min 1,1 UV-I 573 W/m 12,6 km/h (3 Bft)
05.07.2014 17:30 22,3 C 21,1 C 83 % 1006,4 hPa 0,0 l/m 2 min 0 min 1,1 UV-I 598 W/m 25,1 km/h (4 Bft)
05.07.2014 17:32 22,3 C 21,1 C 82 % 1006,3 hPa 0,0 l/m 2 min 0 min 1,1 UV-I 598 W/m 25,1 km/h (4 Bft)
05.07.2014 17:34 22,3 C 21,1 C 82 % 1006,4 hPa 0,0 l/m 2 min 0 min 1,1 UV-I 598 W/m 23,0 km/h (4 Bft)
05.07.2014 17:36 22,3 C 21,1 C 82 % 1006,4 hPa 0,0 l/m 2 min 0 min 1,0 UV-I 555 W/m 16,7 km/h (3 Bft)
05.07.2014 17:38 22,5 C 21,1 C 81 % 1006,3 hPa 0,0 l/m 0 min 0 min 0,9 UV-I 179 W/m 14,6 km/h (3 Bft)
05.07.2014 17:40 22,6 C 21,1 C 81 % 1006,4 hPa 0,0 l/m 0 min 0 min 0,8 UV-I 220 W/m 14,6 km/h (3 Bft)
05.07.2014 17:42 22,6 C 21,7 C 81 % 1006,4 hPa 0,0 l/m 0 min 0 min 0,7 UV-I 251 W/m 12,6 km/h (3 Bft)
05.07.2014 17:44 22,6 C 21,1 C 80 % 1006,3 hPa 0,0 l/m 0 min 0 min 0,6 UV-I 213 W/m 18,8 km/h (3 Bft)
05.07.2014 17:46 22,4 C 21,1 C 80 % 1006,3 hPa 0,0 l/m 2 min 0 min 0,6 UV-I 332 W/m 33,5 km/h (5 Bft)
05.07.2014 17:48 22,3 C 21,1 C 80 % 1006,3 hPa 0,0 l/m 0 min 0 min 0,8 UV-I 229 W/m 31,4 km/h (5 Bft)
05.07.2014 17:50 22,2 C 21,1 C 80 % 1006,3 hPa 0,0 l/m 2 min 0 min 0,9 UV-I 316 W/m 31,4 km/h (5 Bft)
05.07.2014 17:52 22,3 C 21,1 C 81 % 1006,3 hPa 0,0 l/m 2 min 0 min 0,8 UV-I 482 W/m 27,2 km/h (4 Bft)
05.07.2014 17:54 22,3 C 20,6 C 80 % 1006,3 hPa 0,0 l/m 0 min 0 min 0,8 UV-I 221 W/m 27,2 km/h (4 Bft)
05.07.2014 17:56 22,3 C 21,1 C 80 % 1006,2 hPa 0,0 l/m 0 min 0 min 0,9 UV-I 244 W/m 29,3 km/h (5 Bft)
05.07.2014 17:58 22,4 C 21,1 C 81 % 1006,2 hPa 0,0 l/m 0 min 0 min 0,8 UV-I 241 W/m 27,2 km/h (4 Bft)
05.07.2014 18:00 22,4 C 21,1 C 80 % 1006,3 hPa 0,0 l/m 0 min 0 min 0,7 UV-I 246 W/m 23,0 km/h (4 Bft)
05.07.2014 18:02 22,4 C 21,7 C 81 % 1006,3 hPa 0,0 l/m 0 min 0 min 0,6 UV-I 251 W/m 14,6 km/h (3 Bft)
05.07.2014 18:06 22,5 C 21,7 C 80 % 1006,4 hPa 0,0 l/m 0 min 0 min 0,0 UV-I 225 W/m 23,0 km/h (4 Bft)
05.07.2014 18:08 22,5 C 21,7 C 80 % 1006,3 hPa 0,0 l/m 2 min 0 min 0,5 UV-I 274 W/m 10,5 km/h (2 Bft)
05.07.2014 18:10 22,6 C 21,7 C 80 % 1006,3 hPa 0,0 l/m 0 min 0 min 0,6 UV-I 244 W/m 20,9 km/h (4 Bft)
05.07.2014 18:12 22,6 C 21,7 C 79 % 1006,2 hPa 0,0 l/m 0 min 0 min 0,5 UV-I 179 W/m 25,1 km/h (4 Bft)
05.07.2014 18:14 22,6 C 21,7 C 79 % 1006,2 hPa 0,0 l/m 0 min 0 min 0,0 UV-I 155 W/m 20,9 km/h (4 Bft)
05.07.2014 18:16 22,6 C 21,1 C 79 % 1006,3 hPa 0,0 l/m 0 min 0 min 0,0 UV-I 176 W/m 16,7 km/h (3 Bft)
05.07.2014 18:18 22,5 C 21,1 C 79 % 1006,2 hPa 0,0 l/m 0 min 0 min 0,0 UV-I 220 W/m 16,7 km/h (3 Bft)
05.07.2014 18:20 22,6 C 21,7 C 79 % 1006,3 hPa 0,0 l/m 0 min 0 min 0,0 UV-I 220 W/m 18,8 km/h (3 Bft)
05.07.2014 18:22 22,6 C 21,7 C 79 % 1006,3 hPa 0,0 l/m 0 min 0 min 0,5 UV-I 232 W/m 27,2 km/h (4 Bft)
05.07.2014 18:24 22,7 C 21,7 C 79 % 1006,3 hPa 0,0 l/m 0 min 0 min 0,0 UV-I 207 W/m 23,0 km/h (4 Bft)
05.07.2014 18:26 22,7 C 21,7 C 79 % 1006,3 hPa 0,0 l/m 0 min 0 min 0,0 UV-I 158 W/m 27,2 km/h (4 Bft)
05.07.2014 18:28 22,6 C 21,1 C 78 % 1006,3 hPa 0,0 l/m 0 min 0 min 0,0 UV-I 125 W/m 23,0 km/h (4 Bft)
05.07.2014 18:30 22,6 C 21,1 C 79 % 1006,2 hPa 0,0 l/m 0 min 0 min 0,0 UV-I 114 W/m 16,7 km/h (3 Bft)
05.07.2014 18:32 22,6 C 21,1 C 79 % 1006,2 hPa 0,0 l/m 0 min 0 min 0,0 UV-I 79 W/m 12,6 km/h (3 Bft)
05.07.2014 18:34 22,6 C 21,1 C 80 % 1006,2 hPa 0,0 l/m 0 min 0 min 0,0 UV-I 51 W/m 20,9 km/h (4 Bft)
05.07.2014 18:36 22,5 C 20,6 C 79 % 1006,2 hPa 0,0 l/m 0 min 0 min 0,0 UV-I 46 W/m 18,8 km/h (3 Bft)
05.07.2014 18:38 22,4 C 20,6 C 79 % 1006,1 hPa 0,0 l/m 0 min 0 min 0,0 UV-I 37 W/m 20,9 km/h (4 Bft)
05.07.2014 18:40 22,3 C 20,6 C 79 % 1006,1 hPa 0,0 l/m 0 min 0 min 0,0 UV-I 28 W/m 20,9 km/h (4 Bft)
05.07.2014 18:42 22,3 C 20,6 C 80 % 1006,1 hPa 0,0 l/m 0 min 0 min 0,0 UV-I 25 W/m 14,6 km/h (3 Bft)
05.07.2014 18:44 22,2 C 20,6 C 80 % 1006,2 hPa 0,0 l/m 0 min 0 min 0,0 UV-I 19 W/m 16,7 km/h (3 Bft)
05.07.2014 18:46 22,2 C 20,0 C 80 % 1006,3 hPa 0,0 l/m 0 min 2 min 0,0 UV-I 23 W/m 14,6 km/h (3 Bft)
05.07.2014 18:48 22,2 C 19,4 C 80 % 1006,3 hPa 0,0 l/m 0 min 2 min 0,0 UV-I 26 W/m 27,2 km/h (4 Bft)
05.07.2014 18:50 22,1 C 19,4 C 81 % 1006,3 hPa 0,0 l/m 0 min 2 min 0,0 UV-I 25 W/m 16,7 km/h (3 Bft)
05.07.2014 18:52 22,0 C 19,4 C 81 % 1006,5 hPa 0,0 l/m 0 min 2 min 0,0 UV-I 25 W/m 27,2 km/h (4 Bft)
05.07.2014 18:54 21,9 C 18,3 C 83 % 1006,6 hPa 0,2 l/m 0 min 2 min 0,0 UV-I 21 W/m 35,6 km/h (5 Bft)
05.07.2014 18:56 21,6 C 18,3 C 84 % 1006,7 hPa 0,4 l/m 0 min 2 min 0,0 UV-I 23 W/m 20,9 km/h (4 Bft)
05.07.2014 18:58 21,2 C 17,8 C 86 % 1006,6 hPa 0,4 l/m 0 min 2 min 0,0 UV-I 28 W/m 25,1 km/h (4 Bft)
05.07.2014 19:00 20,8 C 17,8 C 87 % 1006,6 hPa 0,2 l/m 0 min 2 min 0,0 UV-I 30 W/m 35,6 km/h (5 Bft)
05.07.2014 19:02 20,3 C 17,2 C 88 % 1006,7 hPa 0,2 l/m 0 min 2 min 0,0 UV-I 28 W/m 27,2 km/h (4 Bft)
05.07.2014 19:04 19,9 C 17,2 C 89 % 1006,7 hPa 0,2 l/m 0 min 2 min 0,0 UV-I 35 W/m 25,1 km/h (4 Bft)
05.07.2014 19:06 19,7 C 17,2 C 90 % 1006,7 hPa 0,2 l/m 0 min 2 min 0,0 UV-I 40 W/m 25,1 km/h (4 Bft)
05.07.2014 19:08 19,6 C 17,8 C 91 % 1006,7 hPa 0,2 l/m 0 min 2 min 0,0 UV-I 51 W/m 23,0 km/h (4 Bft)
05.07.2014 19:10 19,4 C 17,8 C 92 % 1006,6 hPa 0,0 l/m 0 min 2 min 0,0 UV-I 60 W/m 18,8 km/h (3 Bft)
05.07.2014 19:12 19,4 C 17,8 C 93 % 1006,6 hPa 0,2 l/m 0 min 2 min 0,0 UV-I 65 W/m 12,6 km/h (3 Bft)
05.07.2014 19:14 19,3 C 17,8 C 93 % 1006,7 hPa 0,0 l/m 0 min 2 min 0,0 UV-I 98 W/m 16,7 km/h (3 Bft)
05.07.2014 19:16 19,3 C 17,8 C 93 % 1006,7 hPa 0,0 l/m 0 min 2 min 0,0 UV-I 123 W/m 16,7 km/h (3 Bft)
05.07.2014 19:18 19,3 C 17,8 C 94 % 1006,7 hPa 0,0 l/m 0 min 0 min 0,0 UV-I 135 W/m 12,6 km/h (3 Bft)
05.07.2014 19:20 19,3 C 18,3 C 94 % 1006,7 hPa 0,0 l/m 2 min 0 min 0,0 UV-I 188 W/m 14,6 km/h (3 Bft)
05.07.2014 19:22 19,4 C 18,3 C 94 % 1006,7 hPa 0,0 l/m 2 min 0 min 0,0 UV-I 336 W/m 14,6 km/h (3 Bft)
05.07.2014 19:24 19,4 C 18,3 C 95 % 1006,7 hPa 0,0 l/m 2 min 0 min 0,0 UV-I 211 W/m 12,6 km/h (3 Bft)
05.07.2014 19:26 19,5 C 18,3 C 95 % 1006,9 hPa 0,0 l/m 2 min 0 min 0,0 UV-I 172 W/m 12,6 km/h (3 Bft)
05.07.2014 19:28 19,6 C 18,3 C 95 % 1007,0 hPa 0,0 l/m 2 min 0 min 0,0 UV-I 195 W/m 10,5 km/h (2 Bft)
05.07.2014 19:30 19,6 C 18,3 C 95 % 1006,8 hPa 0,0 l/m 2 min 0 min 0,0 UV-I 287 W/m 18,8 km/h (3 Bft)
05.07.2014 19:32 19,6 C 18,3 C 95 % 1006,7 hPa 0,0 l/m 0 min 0 min 0,0 UV-I 141 W/m 12,6 km/h (3 Bft)
05.07.2014 19:34 19,7 C 18,3 C 95 % 1006,7 hPa 0,0 l/m 0 min 0 min 0,0 UV-I 130 W/m 10,5 km/h (2 Bft)
05.07.2014 19:36 19,7 C 18,3 C 95 % 1006,9 hPa 0,0 l/m 2 min 0 min 0,0 UV-I 185 W/m 18,8 km/h (3 Bft)
05.07.2014 19:38 19,8 C 18,3 C 95 % 1006,9 hPa 0,0 l/m 0 min 0 min 0,0 UV-I 134 W/m 18,8 km/h (3 Bft)
05.07.2014 19:40 19,8 C 18,3 C 95 % 1007,0 hPa 0,0 l/m 0 min 0 min 0,0 UV-I 134 W/m 12,6 km/h (3 Bft)
05.07.2014 19:42 19,8 C 18,3 C 95 % 1006,9 hPa 0,0 l/m 0 min 0 min 0,0 UV-I 128 W/m 12,6 km/h (3 Bft)
05.07.2014 19:44 19,8 C 18,3 C 95 % 1007,0 hPa 0,0 l/m 0 min 0 min 0,0 UV-I 93 W/m 10,5 km/h (2 Bft)
05.07.2014 19:46 19,8 C 18,3 C 95 % 1007,0 hPa 0,0 l/m 0 min 0 min 0,0 UV-I 114 W/m 12,6 km/h (3 Bft)
05.07.2014 19:48 19,8 C 18,3 C 95 % 1007,0 hPa 0,0 l/m 0 min 0 min 0,0 UV-I 125 W/m 12,6 km/h (3 Bft)
05.07.2014 19:50 19,8 C 18,3 C 95 % 1007,0 hPa 0,0 l/m 2 min 0 min 0,0 UV-I 139 W/m 10,5 km/h (2 Bft)
05.07.2014 19:52 19,8 C 18,3 C 95 % 1007,0 hPa 0,0 l/m 0 min 0 min 0,0 UV-I 90 W/m 12,6 km/h (3 Bft)
05.07.2014 19:54 19,7 C 18,3 C 95 % 1007,0 hPa 0,0 l/m 2 min 2 min 0,0 UV-I 134 W/m 16,7 km/h (3 Bft)
05.07.2014 19:56 19,7 C 18,3 C 95 % 1007,1 hPa 0,0 l/m 0 min 2 min 0,0 UV-I 90 W/m 16,7 km/h (3 Bft)
05.07.2014 19:58 19,7 C 18,3 C 95 % 1007,1 hPa 0,0 l/m 0 min 2 min 0,0 UV-I 98 W/m 14,6 km/h (3 Bft)
05.07.2014 20:00 19,7 C 18,3 C 95 % 1007,1 hPa 0,0 l/m 0 min 2 min 0,0 UV-I 114 W/m 23,0 km/h (4 Bft)
05.07.2014 20:02 19,7 C 18,3 C 95 % 1007,1 hPa 0,0 l/m 0 min 2 min 0,0 UV-I 107 W/m 23,0 km/h (4 Bft)
05.07.2014 20:04 19,7 C 18,3 C 95 % 1007,1 hPa 0,0 l/m 2 min 0 min 0,0 UV-I 118 W/m 16,7 km/h (3 Bft)
05.07.2014 20:06 19,7 C 18,3 C 95 % 1007,2 hPa 0,0 l/m 0 min 0 min 0,0 UV-I 84 W/m 14,6 km/h (3 Bft)
05.07.2014 20:08 19,7 C 18,3 C 95 % 1007,2 hPa 0,0 l/m 0 min 0 min 0,0 UV-I 84 W/m 12,6 km/h (3 Bft)
05.07.2014 20:10 19,6 C 17,8 C 95 % 1007,2 hPa 0,0 l/m 0 min 0 min 0,0 UV-I 90 W/m 16,7 km/h (3 Bft)
05.07.2014 20:12 19,6 C 18,3 C 95 % 1007,2 hPa 0,0 l/m 0 min 0 min 0,0 UV-I 86 W/m 10,5 km/h (2 Bft)
05.07.2014 20:14 19,6 C 18,3 C 95 % 1007,2 hPa 0,0 l/m 0 min 0 min 0,0 UV-I 77 W/m 16,7 km/h (3 Bft)
05.07.2014 20:16 19,5 C 17,8 C 95 % 1007,2 hPa 0,0 l/m 0 min 0 min 0,0 UV-I 77 W/m 16,7 km/h (3 Bft)
05.07.2014 20:18 19,4 C 17,8 C 95 % 1007,2 hPa 0,0 l/m 0 min 0 min 0,0 UV-I 77 W/m 14,6 km/h (3 Bft)
05.07.2014 20:20 19,4 C 17,8 C 95 % 1007,2 hPa 0,0 l/m 0 min 0 min 0,0 UV-I 76 W/m 16,7 km/h (3 Bft)
05.07.2014 20:22 19,4 C 17,8 C 95 % 1007,2 hPa 0,0 l/m 0 min 0 min 0,0 UV-I 70 W/m 14,6 km/h (3 Bft)
05.07.2014 20:24 19,4 C 17,8 C 95 % 1007,2 hPa 0,0 l/m 0 min 0 min 0,0 UV-I 77 W/m 12,6 km/h (3 Bft)
05.07.2014 20:26 19,4 C 17,8 C 95 % 1007,3 hPa 0,0 l/m 0 min 0 min 0,0 UV-I 72 W/m 10,5 km/h (2 Bft)
05.07.2014 20:28 19,4 C 17,8 C 95 % 1007,3 hPa 0,0 l/m 0 min 0 min 0,0 UV-I 65 W/m 18,8 km/h (3 Bft)
05.07.2014 20:30 19,4 C 17,8 C 95 % 1007,3 hPa 0,0 l/m 0 min 0 min 0,0 UV-I 62 W/m 16,7 km/h (3 Bft)
05.07.2014 20:32 19,4 C 17,8 C 95 % 1007,3 hPa 0,0 l/m 0 min 0 min 0,0 UV-I 56 W/m 4,2 km/h (1 Bft)
05.07.2014 20:34 19,4 C 17,8 C 95 % 1007,3 hPa 0,0 l/m 0 min 0 min 0,0 UV-I 54 W/m 14,6 km/h (3 Bft)
05.07.2014 20:36 19,3 C 17,8 C 95 % 1007,4 hPa 0,0 l/m 0 min 0 min 0,0 UV-I 46 W/m 16,7 km/h (3 Bft)
05.07.2014 20:38 19,3 C 17,8 C 95 % 1007,4 hPa 0,0 l/m 0 min 0 min 0,0 UV-I 40 W/m 10,5 km/h (2 Bft)
05.07.2014 20:40 19,3 C 17,8 C 95 % 1007,5 hPa 0,0 l/m 0 min 0 min 0,0 UV-I 39 W/m 12,6 km/h (3 Bft)
05.07.2014 20:42 19,3 C 17,8 C 95 % 1007,4 hPa 0,0 l/m 0 min 0 min 0,0 UV-I 35 W/m 8,4 km/h (2 Bft)
05.07.2014 20:44 19,2 C 17,8 C 95 % 1007,5 hPa 0,0 l/m 0 min 0 min 0,0 UV-I 33 W/m 8,4 km/h (2 Bft)
05.07.2014 20:46 19,2 C 17,8 C 95 % 1007,5 hPa 0,0 l/m 0 min 0 min 0,0 UV-I 33 W/m 10,5 km/h (2 Bft)
05.07.2014 20:48 19,2 C 17,8 C 95 % 1007,5 hPa 0,0 l/m 0 min 0 min 0,0 UV-I 30 W/m 8,4 km/h (2 Bft)
05.07.2014 20:50 19,2 C 17,8 C 95 % 1007,5 hPa 0,0 l/m 0 min 0 min 0,0 UV-I 28 W/m 10,5 km/h (2 Bft)
05.07.2014 20:52 19,2 C 17,8 C 95 % 1007,4 hPa 0,0 l/m 0 min 0 min 0,0 UV-I 28 W/m 8,4 km/h (2 Bft)
05.07.2014 20:54 19,2 C 17,8 C 96 % 1007,5 hPa 0,0 l/m 0 min 0 min 0,0 UV-I 28 W/m 8,4 km/h (2 Bft)
05.07.2014 20:56 19,2 C 17,8 C 96 % 1007,5 hPa 0,0 l/m 0 min 0 min 0,0 UV-I 30 W/m 8,4 km/h (2 Bft)
05.07.2014 20:58 19,2 C 17,8 C 96 % 1007,5 hPa 0,0 l/m 0 min 0 min 0,0 UV-I 28 W/m 10,5 km/h (2 Bft)
05.07.2014 21:00 19,1 C 17,8 C 96 % 1007,5 hPa 0,0 l/m 0 min 0 min 0,0 UV-I 28 W/m 8,4 km/h (2 Bft)
05.07.2014 21:02 19,2 C 17,8 C 96 % 1007,5 hPa 0,0 l/m 0 min 0 min 0,0 UV-I 26 W/m 10,5 km/h (2 Bft)
05.07.2014 21:04 19,2 C 17,8 C 96 % 1007,5 hPa 0,0 l/m 0 min 0 min 0,0 UV-I 25 W/m 10,5 km/h (2 Bft)
05.07.2014 21:06 19,2 C 17,8 C 96 % 1007,5 hPa 0,0 l/m 0 min 0 min 0,0 UV-I 21 W/m 4,2 km/h (1 Bft)
05.07.2014 21:08 19,2 C 17,8 C 96 % 1007,6 hPa 0,0 l/m 0 min 0 min 0,0 UV-I 18 W/m 12,6 km/h (3 Bft)
05.07.2014 21:10 19,2 C 17,8 C 96 % 1007,6 hPa 0,0 l/m 0 min 0 min 0,0 UV-I 14 W/m 14,6 km/h (3 Bft)
05.07.2014 21:12 19,2 C 17,2 C 96 % 1007,6 hPa 0,0 l/m 0 min 0 min 0,0 UV-I 12 W/m 8,4 km/h (2 Bft)
05.07.2014 21:14 19,2 C 17,2 C 95 % 1007,6 hPa 0,0 l/m 0 min 0 min 0,0 UV-I 12 W/m 16,7 km/h (3 Bft)
05.07.2014 21:16 19,2 C 17,2 C 95 % 1007,6 hPa 0,0 l/m 0 min 2 min 0,0 UV-I 14 W/m 8,4 km/h (2 Bft)
05.07.2014 21:18 19,2 C 17,2 C 95 % 1007,6 hPa 0,0 l/m 0 min 0 min 0,0 UV-I 14 W/m 16,7 km/h (3 Bft)
05.07.2014 21:20 19,2 C 17,2 C 95 % 1007,7 hPa 0,0 l/m 0 min 0 min 0,0 UV-I 14 W/m 12,6 km/h (3 Bft)
05.07.2014 21:22 19,2 C 17,2 C 95 % 1007,6 hPa 0,0 l/m 0 min 0 min 0,0 UV-I 12 W/m 10,5 km/h (2 Bft)
05.07.2014 21:24 19,2 C 17,2 C 95 % 1007,6 hPa 0,0 l/m 0 min 0 min 0,0 UV-I 12 W/m 10,5 km/h (2 Bft)
05.07.2014 21:26 19,2 C 17,2 C 95 % 1007,7 hPa 0,0 l/m 0 min 0 min 0,0 UV-I 14 W/m 6,3 km/h (2 Bft)
05.07.2014 21:28 19,2 C 17,2 C 95 % 1007,7 hPa 0,0 l/m 0 min 0 min 0,0 UV-I 14 W/m 6,3 km/h (2 Bft)
05.07.2014 21:30 19,2 C 17,2 C 95 % 1007,7 hPa 0,0 l/m 0 min 0 min 0,0 UV-I 14 W/m 12,6 km/h (3 Bft)
05.07.2014 21:32 19,2 C 17,2 C 95 % 1007,7 hPa 0,0 l/m 0 min 0 min 0,0 UV-I 11 W/m 10,5 km/h (2 Bft)
05.07.2014 21:34 19,2 C 17,2 C 95 % 1007,7 hPa 0,0 l/m 0 min 0 min 0,0 UV-I 9 W/m 12,6 km/h (3 Bft)
05.07.2014 21:36 19,2 C 17,2 C 95 % 1007,8 hPa 0,0 l/m 0 min 0 min 0,0 UV-I 7 W/m 6,3 km/h (2 Bft)
05.07.2014 21:38 19,2 C 17,2 C 95 % 1007,8 hPa 0,0 l/m 0 min 0 min 0,0 UV-I 7 W/m 14,6 km/h (3 Bft)
05.07.2014 21:40 19,2 C 17,2 C 95 % 1007,8 hPa 0,0 l/m 0 min 0 min 0,0 UV-I 5 W/m 12,6 km/h (3 Bft)
05.07.2014 21:42 19,2 C 17,2 C 95 % 1007,8 hPa 0,0 l/m 0 min 0 min 0,0 UV-I 5 W/m 6,3 km/h (2 Bft)
05.07.2014 21:44 19,2 C 17,2 C 95 % 1007,9 hPa 0,0 l/m 0 min 0 min 0,0 UV-I 5 W/m 10,5 km/h (2 Bft)
05.07.2014 21:46 19,2 C 17,2 C 95 % 1007,9 hPa 0,0 l/m 0 min 0 min 0,0 UV-I 0 W/m 14,6 km/h (3 Bft)
05.07.2014 21:48 19,2 C 17,2 C 95 % 1007,9 hPa 0,0 l/m 0 min 0 min 0,0 UV-I 0 W/m 10,5 km/h (2 Bft)
05.07.2014 21:50 19,2 C 17,2 C 95 % 1007,9 hPa 0,0 l/m 0 min 0 min 0,0 UV-I 0 W/m 12,6 km/h (3 Bft)
05.07.2014 21:52 19,2 C 17,2 C 95 % 1007,9 hPa 0,0 l/m 0 min 0 min 0,0 UV-I 0 W/m 10,5 km/h (2 Bft)
05.07.2014 21:54 19,2 C 17,2 C 95 % 1008,0 hPa 0,0 l/m 0 min 0 min 0,0 UV-I 0 W/m 10,5 km/h (2 Bft)
05.07.2014 21:56 19,2 C 17,2 C 95 % 1008,0 hPa 0,0 l/m 0 min 0 min 0,0 UV-I 0 W/m 14,6 km/h (3 Bft)
05.07.2014 21:58 19,2 C 17,2 C 95 % 1008,0 hPa 0,0 l/m 0 min 0 min 0,0 UV-I 0 W/m 12,6 km/h (3 Bft)
05.07.2014 22:00 19,2 C 17,2 C 95 % 1008,1 hPa 0,0 l/m 0 min 0 min 0,0 UV-I 0 W/m 18,8 km/h (3 Bft)
05.07.2014 22:02 19,2 C 17,2 C 95 % 1008,1 hPa 0,0 l/m 0 min 0 min 0,0 UV-I 0 W/m 14,6 km/h (3 Bft)
05.07.2014 22:04 19,2 C 17,2 C 95 % 1008,1 hPa 0,0 l/m 0 min 0 min 0,0 UV-I 0 W/m 10,5 km/h (2 Bft)
05.07.2014 22:06 19,2 C 17,2 C 95 % 1008,1 hPa 0,0 l/m 0 min 0 min 0,0 UV-I 0 W/m 14,6 km/h (3 Bft)
05.07.2014 22:08 19,2 C 17,2 C 95 % 1008,2 hPa 0,0 l/m 0 min 0 min 0,0 UV-I 0 W/m 20,9 km/h (4 Bft)
05.07.2014 22:10 19,2 C 17,2 C 95 % 1008,1 hPa 0,0 l/m 0 min 0 min 0,0 UV-I 0 W/m 14,6 km/h (3 Bft)
05.07.2014 22:12 19,2 C 17,2 C 95 % 1008,2 hPa 0,0 l/m 0 min 0 min 0,0 UV-I 0 W/m 16,7 km/h (3 Bft)
05.07.2014 22:14 19,2 C 17,2 C 95 % 1008,2 hPa 0,0 l/m 0 min 0 min 0,0 UV-I 0 W/m 14,6 km/h (3 Bft)
05.07.2014 22:16 19,2 C 17,2 C 95 % 1008,2 hPa 0,0 l/m 0 min 0 min 0,0 UV-I 0 W/m 14,6 km/h (3 Bft)
05.07.2014 22:18 19,2 C 17,2 C 96 % 1008,2 hPa 0,0 l/m 0 min 0 min 0,0 UV-I 0 W/m 12,6 km/h (3 Bft)
05.07.2014 22:20 19,2 C 17,2 C 96 % 1008,2 hPa 0,0 l/m 0 min 0 min 0,0 UV-I 0 W/m 18,8 km/h (3 Bft)
05.07.2014 22:22 19,2 C 17,2 C 96 % 1008,2 hPa 0,0 l/m 0 min 0 min 0,0 UV-I 0 W/m 14,6 km/h (3 Bft)
05.07.2014 22:24 19,2 C 17,2 C 96 % 1008,2 hPa 0,0 l/m 0 min 0 min 0,0 UV-I 0 W/m 16,7 km/h (3 Bft)
05.07.2014 22:26 19,2 C 17,8 C 96 % 1008,2 hPa 0,0 l/m 0 min 0 min 0,0 UV-I 0 W/m 16,7 km/h (3 Bft)
05.07.2014 22:28 19,2 C 17,8 C 96 % 1008,2 hPa 0,0 l/m 0 min 0 min 0,0 UV-I 0 W/m 14,6 km/h (3 Bft)
05.07.2014 22:30 19,2 C 17,8 C 95 % 1008,2 hPa 0,0 l/m 0 min 0 min 0,0 UV-I 0 W/m 12,6 km/h (3 Bft)
05.07.2014 22:32 19,2 C 17,8 C 95 % 1008,3 hPa 0,0 l/m 0 min 0 min 0,0 UV-I 0 W/m 12,6 km/h (3 Bft)
05.07.2014 22:34 19,3 C 17,2 C 95 % 1008,3 hPa 0,0 l/m 0 min 0 min 0,0 UV-I 0 W/m 14,6 km/h (3 Bft)
05.07.2014 22:36 19,3 C 17,2 C 95 % 1008,3 hPa 0,0 l/m 0 min 0 min 0,0 UV-I 0 W/m 10,5 km/h (2 Bft)
05.07.2014 22:38 19,3 C 17,8 C 95 % 1008,3 hPa 0,0 l/m 0 min 0 min 0,0 UV-I 0 W/m 18,8 km/h (3 Bft)
05.07.2014 22:40 19,3 C 17,8 C 95 % 1008,3 hPa 0,0 l/m 0 min 0 min 0,0 UV-I 0 W/m 14,6 km/h (3 Bft)
05.07.2014 22:42 19,3 C 17,8 C 95 % 1008,4 hPa 0,0 l/m 0 min 0 min 0,0 UV-I 0 W/m 14,6 km/h (3 Bft)
05.07.2014 22:44 19,3 C 17,8 C 95 % 1008,4 hPa 0,0 l/m 0 min 2 min 0,0 UV-I 0 W/m 18,8 km/h (3 Bft)
05.07.2014 22:46 19,3 C 17,8 C 95 % 1008,4 hPa 0,0 l/m 0 min 2 min 0,0 UV-I 0 W/m 14,6 km/h (3 Bft)
05.07.2014 22:48 19,3 C 17,8 C 95 % 1008,4 hPa 0,0 l/m 0 min 2 min 0,0 UV-I 0 W/m 16,7 km/h (3 Bft)
05.07.2014 22:50 19,4 C 17,8 C 95 % 1008,4 hPa 0,0 l/m 0 min 0 min 0,0 UV-I 0 W/m 18,8 km/h (3 Bft)
05.07.2014 22:52 19,4 C 17,8 C 95 % 1008,5 hPa 0,0 l/m 0 min 2 min 0,0 UV-I 0 W/m 16,7 km/h (3 Bft)
05.07.2014 22:54 19,4 C 17,2 C 94 % 1008,6 hPa 0,0 l/m 0 min 2 min 0,0 UV-I 0 W/m 14,6 km/h (3 Bft)
05.07.2014 22:56 19,4 C 17,2 C 94 % 1008,6 hPa 0,0 l/m 0 min 2 min 0,0 UV-I 0 W/m 12,6 km/h (3 Bft)
05.07.2014 22:58 19,4 C 17,2 C 94 % 1008,6 hPa 0,0 l/m 0 min 2 min 0,0 UV-I 0 W/m 6,3 km/h (2 Bft)
05.07.2014 23:00 19,4 C 17,2 C 94 % 1008,6 hPa 0,0 l/m 0 min 2 min 0,0 UV-I 0 W/m 8,4 km/h (2 Bft)
05.07.2014 23:02 19,4 C 17,2 C 94 % 1008,6 hPa 0,0 l/m 0 min 2 min 0,0 UV-I 0 W/m 10,5 km/h (2 Bft)
05.07.2014 23:04 19,4 C 17,2 C 94 % 1008,6 hPa 0,0 l/m 0 min 2 min 0,0 UV-I 0 W/m 2,1 km/h (1 Bft)
05.07.2014 23:06 19,4 C 17,2 C 94 % 1008,7 hPa 0,0 l/m 0 min 2 min 0,0 UV-I 0 W/m 6,3 km/h (2 Bft)
05.07.2014 23:08 19,3 C 17,2 C 95 % 1008,6 hPa 0,2 l/m 0 min 2 min 0,0 UV-I 0 W/m 6,3 km/h (2 Bft)
05.07.2014 23:10 19,3 C 17,2 C 95 % 1008,7 hPa 0,0 l/m 0 min 2 min 0,0 UV-I 0 W/m 6,3 km/h (2 Bft)
05.07.2014 23:12 19,3 C 17,2 C 95 % 1008,8 hPa 0,0 l/m 0 min 2 min 0,0 UV-I 0 W/m 10,5 km/h (2 Bft)
05.07.2014 23:14 19,3 C 17,2 C 95 % 1008,8 hPa 0,0 l/m 0 min 2 min 0,0 UV-I 0 W/m 10,5 km/h (2 Bft)
05.07.2014 23:16 19,2 C 17,2 C 95 % 1008,8 hPa 0,2 l/m 0 min 2 min 0,0 UV-I 0 W/m 14,6 km/h (3 Bft)
05.07.2014 23:18 19,2 C 17,2 C 95 % 1008,7 hPa 0,0 l/m 0 min 2 min 0,0 UV-I 0 W/m 12,6 km/h (3 Bft)
05.07.2014 23:20 19,2 C 17,2 C 95 % 1008,8 hPa 0,2 l/m 0 min 2 min 0,0 UV-I 0 W/m 12,6 km/h (3 Bft)
05.07.2014 23:22 19,2 C 17,2 C 95 % 1008,8 hPa 0,0 l/m 0 min 2 min 0,0 UV-I 0 W/m 6,3 km/h (2 Bft)
05.07.2014 23:24 19,2 C 17,2 C 96 % 1008,8 hPa 0,0 l/m 0 min 2 min 0,0 UV-I 0 W/m 12,6 km/h (3 Bft)
05.07.2014 23:26 19,2 C 17,2 C 96 % 1008,8 hPa 0,0 l/m 0 min 2 min 0,0 UV-I 0 W/m 14,6 km/h (3 Bft)
05.07.2014 23:28 19,1 C 17,2 C 96 % 1008,8 hPa 0,2 l/m 0 min 2 min 0,0 UV-I 0 W/m 10,5 km/h (2 Bft)
05.07.2014 23:30 19,1 C 17,2 C 96 % 1008,8 hPa 0,0 l/m 0 min 2 min 0,0 UV-I 0 W/m 12,6 km/h (3 Bft)
05.07.2014 23:32 19,1 C 17,2 C 96 % 1008,9 hPa 0,2 l/m 0 min 2 min 0,0 UV-I 0 W/m 10,5 km/h (2 Bft)
05.07.2014 23:34 19,1 C 17,2 C 96 % 1008,9 hPa 0,4 l/m 0 min 2 min 0,0 UV-I 0 W/m 10,5 km/h (2 Bft)
05.07.2014 23:36 19,1 C 17,2 C 96 % 1008,7 hPa 0,2 l/m 0 min 2 min 0,0 UV-I 0 W/m 10,5 km/h (2 Bft)
05.07.2014 23:38 19,0 C 17,2 C 96 % 1008,8 hPa 0,0 l/m 0 min 2 min 0,0 UV-I 0 W/m 12,6 km/h (3 Bft)
05.07.2014 23:40 18,9 C 17,2 C 96 % 1008,7 hPa 0,0 l/m 0 min 2 min 0,0 UV-I 0 W/m 14,6 km/h (3 Bft)
05.07.2014 23:42 18,9 C 17,2 C 96 % 1008,7 hPa 0,0 l/m 0 min 2 min 0,0 UV-I 0 W/m 10,5 km/h (2 Bft)
05.07.2014 23:44 18,9 C 17,2 C 97 % 1008,6 hPa 0,0 l/m 0 min 2 min 0,0 UV-I 0 W/m 12,6 km/h (3 Bft)
05.07.2014 23:46 18,9 C 17,2 C 97 % 1008,6 hPa 0,0 l/m 0 min 2 min 0,0 UV-I 0 W/m 10,5 km/h (2 Bft)
05.07.2014 23:48 18,8 C 17,2 C 97 % 1008,6 hPa 0,0 l/m 0 min 2 min 0,0 UV-I 0 W/m 12,6 km/h (3 Bft)
05.07.2014 23:50 18,8 C 17,2 C 97 % 1008,5 hPa 0,0 l/m 0 min 0 min 0,0 UV-I 0 W/m 8,4 km/h (2 Bft)
05.07.2014 23:52 18,8 C 17,2 C 97 % 1008,6 hPa 0,0 l/m 0 min 0 min 0,0 UV-I 0 W/m 6,3 km/h (2 Bft)
05.07.2014 23:54 18,8 C 17,2 C 97 % 1008,6 hPa 0,0 l/m 0 min 0 min 0,0 UV-I 0 W/m 8,4 km/h (2 Bft)
05.07.2014 23:56 18,7 C 17,2 C 97 % 1008,5 hPa 0,0 l/m 0 min 0 min 0,0 UV-I 0 W/m 8,4 km/h (2 Bft)
05.07.2014 23:58 18,7 C 17,2 C 97 % 1008,5 hPa 0,0 l/m 0 min 0 min 0,0 UV-I 0 W/m 6,3 km/h (2 Bft)
_ Min-Zeit 23:56 11:26 01:02 07:52 - - - - - 00:02
Minimum _ 18,7 C 17,2 C 72 % 1004,9 hPa - - - - - 0,0 km/h (0 Bft)
_ Max-Zeit 16:50 10:38 23:44 23:32 18:56 08:46 03:24 14:08 17:22 15:06
Maximum _ 22,7 C 22,8 C 97 % 1008,9 hPa 0,4 l/m 2 min 2 min 3,1 UV-I 751 W/m 48,1 km/h
S (6 Bft)
Durchschnitt _ 20,7 C 19,1 C 84 % 1006,2 hPa #5,6 l/m #2:04 h #5:04 h 1,4 UV-I 178 W/m 15,0 km/h (3 Bft)
© 2014 W. Hausmann